M I D A S
Marine Information and Data Acquisition System
Tripno 2286 of the Zeeleeuw from 2012-04-10 06:58:58 to 2012-04-10 14:41:08
Back to CruiseResearch ActivitiesStationsMapUnderway DataData graphs

EquipmentUnitsComment
TimeDGPSUTC
LatitudeDGPSDM.mWGS84
LongitudeDGPSDM.mWGS84
TemperatureSBE03/SBE38deg celciusITS90
ConductivitySBE21S/mITS90
SalinitySBE21 Practical Salinity Units
ChlorophylAChelsea fluorimeterg/lCalibrated in Aceton
Missing or incorrect values are displayed as -999
Sea surface data collected by the RV Zeeleeuw from 2012-04-10 06:36:12 to 2012-04-10 14:52:26
                                                                                    Next 1000 lines
Time Latitude Longitude Temperature Conductivity Salinity ChlorophylA
2012-04-10 06:36:23 51°13.634 2°56.019 15.2505 0.063683 0.318395 -2.458615
2012-04-10 06:36:28 51°13.634 2°56.017 15.2512 0.063683 0.318395 -2.458615
2012-04-10 06:36:33 51°13.634 2°56.017 15.2514 0.063683 0.318395 -2.458615
2012-04-10 06:36:37 51°13.634 2°56.017 15.2543 0.063581 0.317873 -2.458615
2012-04-10 06:36:42 51°13.634 2°56.016 15.256 0.063581 0.317873 -2.458615
2012-04-10 06:36:47 51°13.634 2°56.016 15.2579 0.063683 0.3184 -2.458615
2012-04-10 06:36:52 51°13.634 2°56.015 15.2599 0.063683 0.3184 -2.458615
2012-04-10 06:36:57 51°13.635 2°56.016 15.2585 0.063683 0.3184 -2.458615
2012-04-10 06:37:02 51°13.635 2°56.016 15.2574 0.064198 0.321039 -2.458615
2012-04-10 06:37:07 51°13.635 2°56.016 15.258 0.063889 0.319456 -2.458615
2012-04-10 06:37:12 51°13.635 2°56.016 15.2575 0.063786 0.318928 -2.458615
2012-04-10 06:37:17 51°13.635 2°56.016 15.2584 0.063889 0.319456 -2.458615
2012-04-10 06:37:23 51°13.635 2°56.016 15.258 0.063889 0.319461 -2.458615
2012-04-10 06:37:28 51°13.635 2°56.016 15.2598 0.063889 0.319461 -2.458615
2012-04-10 06:37:33 51°13.635 2°56.016 15.2593 0.063683 0.318405 -2.458615
2012-04-10 06:37:38 51°13.635 2°56.016 15.26 0.063992 0.319984 -2.458615
2012-04-10 06:37:43 51°13.635 2°56.016 15.2614 0.064095 0.320516 -2.458615
2012-04-10 06:37:48 51°13.635 2°56.016 15.2613 0.064095 0.320516 -2.458615
2012-04-10 06:37:53 51°13.635 2°56.016 15.2605 0.063992 0.319989 -2.458615
2012-04-10 06:37:58 51°13.635 2°56.016 15.2614 0.063992 0.319989 -2.458615
2012-04-10 06:38:03 51°13.635 2°56.016 15.2614 0.063992 0.319989 -2.458615
2012-04-10 06:38:08 51°13.635 2°56.016 15.263 0.063581 0.317877 -2.458615
2012-04-10 06:38:12 51°13.635 2°56.015 15.2635 0.063889 0.319461 -2.458615
2012-04-10 06:38:17 51°13.635 2°56.016 15.262 0.063581 0.317877 -2.458615
2012-04-10 06:38:22 51°13.635 2°56.016 15.2588 0.063889 0.319461 -2.458615
2012-04-10 06:38:27 51°13.635 2°56.016 15.2587 0.063889 0.319461 -2.458615
2012-04-10 06:38:32 51°13.635 2°56.016 15.2595 0.063683 0.318405 -2.458615
2012-04-10 06:38:37 51°13.636 2°56.015 15.2614 0.063889 0.319461 -2.458615
2012-04-10 06:38:43 51°13.636 2°56.015 15.2611 0.063786 0.318933 -2.458615
2012-04-10 06:38:47 51°13.636 2°56.015 15.2632 0.063683 0.318405 -2.458615
2012-04-10 06:38:53 51°13.636 2°56.015 15.2622 0.063992 0.319989 -2.458615
2012-04-10 06:38:58 51°13.636 2°56.015 15.2649 0.063992 0.319989 -2.458615
2012-04-10 06:39:02 51°13.636 2°56.015 15.2653 0.063992 0.319989 -2.458615
2012-04-10 06:39:07 51°13.636 2°56.015 15.2674 0.063581 0.317882 -2.458615
2012-04-10 06:39:13 51°13.635 2°56.015 15.2678 0.063581 0.317877 -2.458615
2012-04-10 06:39:17 51°13.635 2°56.015 15.2687 0.063375 0.316827 -2.458615
2012-04-10 06:39:23 51°13.635 2°56.015 15.2681 0.063478 0.317355 -2.458615
2012-04-10 06:39:28 51°13.635 2°56.014 15.2677 0.063478 0.317355 -2.458615
2012-04-10 06:39:32 51°13.635 2°56.014 15.2672 0.063581 0.317877 -2.458615
2012-04-10 06:39:37 51°13.635 2°56.014 15.2701 0.063581 0.317877 -2.458615
2012-04-10 06:39:42 51°13.635 2°56.014 15.2705 0.063581 0.317877 -2.458615
2012-04-10 06:39:47 51°13.635 2°56.014 15.2705 0.063272 0.3163 -2.458615
2012-04-10 06:39:52 51°13.635 2°56.014 15.2713 0.063272 0.3163 -2.458615
2012-04-10 06:39:57 51°13.635 2°56.014 15.2722 0.063272 0.3163 -2.458615
2012-04-10 06:40:02 51°13.635 2°56.014 15.2726 0.063478 0.317355 -2.458615
2012-04-10 06:40:07 51°13.635 2°56.014 15.2725 0.063478 0.317355 -2.458615
2012-04-10 06:40:12 51°13.635 2°56.014 15.2735 0.063375 0.316827 -2.458615
2012-04-10 06:40:18 51°13.635 2°56.014 15.2737 0.063478 0.317355 -2.458615
2012-04-10 06:40:23 51°13.635 2°56.014 15.2744 0.063478 0.317355 -2.458615
2012-04-10 06:40:28 51°13.635 2°56.015 15.2757 0.063478 0.317355 -2.458615
2012-04-10 06:40:33 51°13.635 2°56.015 15.2762 0.063375 0.316827 -2.458615
2012-04-10 06:40:38 51°13.636 2°56.014 15.2773 0.063478 0.317355 -2.458615
2012-04-10 06:40:43 51°13.635 2°56.014 15.2804 0.063478 0.31736 -2.458615
2012-04-10 06:40:48 51°13.635 2°56.014 15.2837 0.063683 0.31841 -2.458615
2012-04-10 06:40:53 51°13.636 2°56.014 15.2818 0.063786 0.318938 -2.458615
2012-04-10 06:40:58 51°13.635 2°56.014 15.2829 0.063786 0.318938 -2.458615
2012-04-10 06:41:02 51°13.635 2°56.014 15.2838 0.063581 0.317887 -2.458615
2012-04-10 06:41:08 51°13.635 2°56.014 15.282 0.063683 0.318415 -2.458615
2012-04-10 06:41:12 51°13.635 2°56.013 15.2831 0.063683 0.318415 -2.458615
2012-04-10 06:41:17 51°13.635 2°56.014 15.282 0.063786 0.318943 -2.458615
2012-04-10 06:41:22 51°13.635 2°56.014 15.284 0.063786 0.318943 -2.458615
2012-04-10 06:41:27 51°13.635 2°56.014 15.2844 0.063786 0.318943 -2.458615
2012-04-10 06:41:32 51°13.635 2°56.014 15.287 0.063786 0.318943 -2.458615
2012-04-10 06:41:37 51°13.635 2°56.014 15.2872 0.063581 0.317887 -2.458615
2012-04-10 06:41:42 51°13.635 2°56.015 15.2884 0.063375 0.316832 -2.458615
2012-04-10 06:41:48 51°13.635 2°56.014 15.2888 0.063683 0.318415 -2.458615
2012-04-10 06:41:53 51°13.635 2°56.014 15.2899 0.063683 0.318415 -2.458615
2012-04-10 06:41:58 51°13.635 2°56.014 15.2886 0.063683 0.318415 -2.458615
2012-04-10 06:42:03 51°13.635 2°56.014 15.2899 0.063581 0.317887 -2.458615
2012-04-10 06:42:08 51°13.635 2°56.015 15.2881 0.063581 0.317892 -2.458615
2012-04-10 06:42:13 51°13.635 2°56.015 15.2869 0.063683 0.318415 -2.458615
2012-04-10 06:42:18 51°13.635 2°56.014 15.2858 0.063478 0.31736 -2.458615
2012-04-10 06:42:23 51°13.635 2°56.015 15.2857 0.063683 0.31842 -2.458615
2012-04-10 06:42:28 51°13.635 2°56.015 15.2857 0.063683 0.31842 -2.458615
2012-04-10 06:42:33 51°13.635 2°56.015 15.2863 0.063683 0.31842 -2.458615
2012-04-10 06:42:38 51°13.635 2°56.016 15.2873 0.063581 0.317887 -2.458615
2012-04-10 06:42:43 51°13.635 2°56.016 15.2892 0.063375 0.316837 -2.458615
2012-04-10 06:42:47 51°13.635 2°56.016 15.2903 0.063478 0.317365 -2.458615
2012-04-10 06:42:52 51°13.635 2°56.016 15.2915 0.063478 0.317365 -2.458615
2012-04-10 06:42:57 51°13.635 2°56.016 15.2924 0.063478 0.317365 -2.458615
2012-04-10 06:43:03 51°13.635 2°56.016 15.2911 0.063478 0.317365 -2.458615
2012-04-10 06:43:07 51°13.635 2°56.016 15.2927 0.063478 0.317365 -2.458615
2012-04-10 06:43:12 51°13.635 2°56.016 15.289 0.063581 0.317892 -2.458615
2012-04-10 06:43:17 51°13.635 2°56.016 15.2909 0.063581 0.317892 -2.458615
2012-04-10 06:43:22 51°13.635 2°56.016 15.2908 0.063683 0.31842 -2.458615
2012-04-10 06:43:27 51°13.635 2°56.016 15.2871 0.063683 0.31842 -2.458615
2012-04-10 06:43:32 51°13.635 2°56.016 15.2841 0.063786 0.318948 -2.458615
2012-04-10 06:43:37 51°13.635 2°56.016 15.2863 0.063786 0.318953 -2.458615
2012-04-10 06:43:42 51°13.635 2°56.017 15.2866 0.063889 0.319481 -2.458615
2012-04-10 06:43:47 51°13.635 2°56.017 15.2885 0.063992 0.320009 -2.458615
2012-04-10 06:43:51 51°13.636 2°56.017 15.2914 0.063889 0.319481 -2.458615
2012-04-10 06:43:58 51°13.636 2°56.017 15.2934 0.063683 0.318425 -2.458615
2012-04-10 06:44:03 51°13.636 2°56.017 15.2933 0.063683 0.318425 -2.458615
2012-04-10 06:44:08 51°13.636 2°56.017 15.2921 0.063786 0.318958 -2.458615
2012-04-10 06:44:13 51°13.636 2°56.017 15.2952 0.063786 0.318953 -2.458615
2012-04-10 06:44:18 51°13.636 2°56.017 15.296 0.063889 0.319481 -2.458615
2012-04-10 06:44:23 51°13.636 2°56.017 15.2988 0.063581 0.317892 -2.458615
2012-04-10 06:44:29 51°13.636 2°56.017 15.2993 0.064095 0.320536 -2.458615
2012-04-10 06:44:33 51°13.636 2°56.017 15.2987 0.064095 0.320536 -2.458615
2012-04-10 06:44:38 51°13.636 2°56.017 15.301 0.063786 0.318958 -2.458615
2012-04-10 06:44:43 51°13.636 2°56.017 15.3016 0.063683 0.318425 -2.458615
2012-04-10 06:44:49 51°13.636 2°56.017 15.303 0.063683 0.318425 -2.458615
2012-04-10 06:44:53 51°13.636 2°56.017 15.3034 0.063683 0.318425 -2.458615
2012-04-10 06:44:58 51°13.636 2°56.017 15.3016 0.063786 0.318958 -2.458615
2012-04-10 06:45:03 51°13.636 2°56.017 15.3018 0.063786 0.318958 -2.458615
2012-04-10 06:45:08 51°13.636 2°56.016 15.3036 0.063581 0.317902 -2.458615
2012-04-10 06:45:14 51°13.636 2°56.017 15.3049 0.063683 0.31843 -2.458615
2012-04-10 06:45:18 51°13.636 2°56.017 15.3046 0.063478 0.317375 -2.458615
2012-04-10 06:45:23 51°13.636 2°56.016 15.3045 0.063683 0.31843 -2.458615
2012-04-10 06:45:28 51°13.636 2°56.015 15.3078 0.063786 0.318958 -2.458615
2012-04-10 06:45:33 51°13.636 2°56.015 15.3073 0.063786 0.318958 -2.458615
2012-04-10 06:45:38 51°13.636 2°56.015 15.3069 0.063683 0.31843 -2.458615
2012-04-10 06:45:43 51°13.636 2°56.015 15.3074 0.063992 0.320014 -2.458615
2012-04-10 06:45:48 51°13.636 2°56.015 15.3071 0.063683 0.318435 -2.458615
2012-04-10 06:45:53 51°13.636 2°56.016 15.3058 0.063683 0.31843 -2.458615
2012-04-10 06:45:58 51°13.636 2°56.016 15.3073 0.063786 0.318958 -2.458615
2012-04-10 06:46:03 51°13.636 2°56.016 15.3087 0.063786 0.318958 -2.458615
2012-04-10 06:46:08 51°13.637 2°56.017 15.3088 0.063683 0.31843 -2.458615
2012-04-10 06:46:14 51°13.637 2°56.017 15.308 0.063786 0.318958 -2.458615
2012-04-10 06:46:18 51°13.637 2°56.017 15.3076 0.063786 0.318958 -2.458615
2012-04-10 06:46:23 51°13.637 2°56.017 15.3096 0.063581 0.317902 -2.458615
2012-04-10 06:46:29 51°13.637 2°56.017 15.311 0.063683 0.318435 -2.458615
2012-04-10 06:46:34 51°13.637 2°56.017 15.312 0.063683 0.318435 -2.458615
2012-04-10 06:46:39 51°13.637 2°56.017 15.3127 0.063683 0.318435 -2.458615
2012-04-10 06:46:44 51°13.637 2°56.017 15.3138 0.063581 0.317907 -2.458615
2012-04-10 06:46:48 51°13.637 2°56.017 15.3143 0.063478 0.31738 -2.458615
2012-04-10 06:46:54 51°13.637 2°56.017 15.314 0.063581 0.317907 -2.458615
2012-04-10 06:46:59 51°13.637 2°56.017 15.3156 0.063478 0.31738 -2.458615
2012-04-10 06:47:04 51°13.637 2°56.017 15.3142 0.063478 0.31738 -2.458615
2012-04-10 06:47:08 51°13.637 2°56.017 15.3145 0.063375 0.316852 -2.458615
2012-04-10 06:47:14 51°13.638 2°56.017 15.3162 0.063478 0.31738 -2.458615
2012-04-10 06:47:19 51°13.638 2°56.017 15.3145 0.063581 0.317907 -2.458615
2012-04-10 06:47:24 51°13.638 2°56.017 15.3149 0.063581 0.317912 -2.458615
2012-04-10 06:47:28 51°13.638 2°56.017 15.3143 0.063581 0.317912 -2.458615
2012-04-10 06:47:34 51°13.638 2°56.017 15.3174 0.063581 0.317912 -2.458615
2012-04-10 06:47:39 51°13.638 2°56.017 15.3146 0.063889 0.319491 -2.458615
2012-04-10 06:47:44 51°13.638 2°56.017 15.311 0.063683 0.31844 -2.458615
2012-04-10 06:47:48 51°13.638 2°56.017 15.3092 0.063478 0.317385 -2.458615
2012-04-10 06:47:54 51°13.638 2°56.017 15.3109 0.0643 0.321608 -2.458615
2012-04-10 06:47:59 51°13.638 2°56.017 15.3116 0.063683 0.31844 -2.458615
2012-04-10 06:48:04 51°13.638 2°56.017 15.3131 0.063683 0.31844 -2.458615
2012-04-10 06:48:08 51°13.638 2°56.017 15.313 0.063683 0.31844 -2.458615
2012-04-10 06:48:13 51°13.638 2°56.017 15.3127 0.063889 0.319496 -2.458615
2012-04-10 06:48:18 51°13.638 2°56.017 15.3135 0.063786 0.318973 -2.458615
2012-04-10 06:48:23 51°13.638 2°56.017 15.3153 0.063683 0.31844 -2.458615
2012-04-10 06:48:28 51°13.638 2°56.017 15.3145 0.063786 0.318973 -2.458615
2012-04-10 06:48:32 51°13.638 2°56.017 15.3154 0.063786 0.318973 -2.458615
2012-04-10 06:48:38 51°13.638 2°56.017 15.3158 0.063581 0.317917 -2.458615
2012-04-10 06:48:43 51°13.638 2°56.017 15.3153 0.063786 0.318973 -2.458615
2012-04-10 06:48:48 51°13.638 2°56.017 15.3151 0.063683 0.318445 -2.458615
2012-04-10 06:48:53 51°13.638 2°56.017 15.3162 0.063581 0.317917 -2.458615
2012-04-10 06:48:58 51°13.638 2°56.017 15.317 0.063478 0.317389 -2.458615
2012-04-10 06:49:03 51°13.638 2°56.017 15.3179 0.063478 0.317389 -2.458615
2012-04-10 06:49:08 51°13.637 2°56.017 15.3188 0.063478 0.317389 -2.458615
2012-04-10 06:49:13 51°13.637 2°56.017 15.3199 0.063683 0.318445 -2.458615
2012-04-10 06:49:18 51°13.637 2°56.017 15.3199 0.063683 0.31845 -2.458615
2012-04-10 06:49:23 51°13.637 2°56.017 15.3191 0.063581 0.317922 -2.458615
2012-04-10 06:49:28 51°13.637 2°56.017 15.3181 0.063786 0.318978 -2.458615
2012-04-10 06:49:33 51°13.637 2°56.017 15.3179 0.063786 0.318978 -2.458615
2012-04-10 06:49:38 51°13.637 2°56.017 15.3179 0.063889 0.319506 -2.458615
2012-04-10 06:49:43 51°13.637 2°56.017 15.3217 0.063992 0.320034 -2.458615
2012-04-10 06:49:48 51°13.637 2°56.018 15.3209 0.063786 0.318983 -2.458615
2012-04-10 06:49:53 51°13.637 2°56.018 15.3221 0.063786 0.318983 -2.458615
2012-04-10 06:49:58 51°13.637 2°56.018 15.3239 0.063683 0.318455 -2.458615
2012-04-10 06:50:03 51°13.638 2°56.018 15.3236 0.063683 0.318455 -2.458615
2012-04-10 06:50:08 51°13.637 2°56.017 15.325 0.063683 0.318455 -2.458615
2012-04-10 06:50:13 51°13.637 2°56.017 15.3246 0.063786 0.318983 -2.458615
2012-04-10 06:50:18 51°13.637 2°56.017 15.3232 0.063786 0.318988 -2.458615
2012-04-10 06:50:23 51°13.637 2°56.017 15.3232 0.063889 0.319516 -2.458615
2012-04-10 06:50:28 51°13.637 2°56.017 15.3216 0.063786 0.318988 -2.458615
2012-04-10 06:50:33 51°13.637 2°56.017 15.324 0.063786 0.318988 -2.458615
2012-04-10 06:50:38 51°13.637 2°56.017 15.3254 0.063786 0.318988 -2.458615
2012-04-10 06:50:43 51°13.637 2°56.017 15.3268 0.063889 0.319521 -2.458615
2012-04-10 06:50:48 51°13.637 2°56.017 15.3239 0.063786 0.318988 -2.458615
2012-04-10 06:50:53 51°13.637 2°56.017 15.3246 0.063992 0.320049 -2.458615
2012-04-10 06:50:58 51°13.637 2°56.017 15.3278 0.063992 0.320049 -2.458615
2012-04-10 06:51:03 51°13.637 2°56.017 15.3282 0.063992 0.320049 -2.458615
2012-04-10 06:51:08 51°13.637 2°56.017 15.3289 0.063992 0.320054 -2.458615
2012-04-10 06:51:13 51°13.637 2°56.017 15.3289 0.063889 0.319526 -2.458615
2012-04-10 06:51:18 51°13.637 2°56.017 15.3296 0.063889 0.319526 -2.458615
2012-04-10 06:51:23 51°13.636 2°56.017 15.3327 0.063683 0.31847 -2.458615
2012-04-10 06:51:28 51°13.636 2°56.017 15.3335 0.063478 0.317414 -2.458615
2012-04-10 06:51:33 51°13.636 2°56.018 15.3343 0.063478 0.317414 -2.458615
2012-04-10 06:51:38 51°13.636 2°56.018 15.3325 0.063683 0.318475 -2.458615
2012-04-10 06:51:43 51°13.636 2°56.018 15.3358 0.063478 0.317419 -2.458615
2012-04-10 06:51:48 51°13.636 2°56.017 15.3372 0.063067 0.315309 -2.458615
2012-04-10 06:51:53 51°13.636 2°56.017 15.3372 0.063067 0.315309 -2.458615
2012-04-10 06:51:59 51°13.636 2°56.017 15.3394 0.062964 0.314781 -2.458615
2012-04-10 06:52:03 51°13.636 2°56.017 15.3415 0.062964 0.314781 -2.458615
2012-04-10 06:52:08 51°13.636 2°56.017 15.3412 0.063169 0.315841 -2.458615
2012-04-10 06:52:13 51°13.637 2°56.017 15.3429 0.063169 0.315841 -2.458615
2012-04-10 06:52:18 51°13.637 2°56.017 15.3437 0.063169 0.315846 -2.458615
2012-04-10 06:52:23 51°13.637 2°56.017 15.3439 0.063272 0.316374 -2.458615
2012-04-10 06:52:28 51°13.637 2°56.017 15.3415 0.063169 0.315846 -2.458615
2012-04-10 06:52:33 51°13.636 2°56.017 15.3418 0.063169 0.315846 -2.458615
2012-04-10 06:52:38 51°13.636 2°56.017 15.3409 0.062861 0.314263 -2.458615
2012-04-10 06:52:43 51°13.636 2°56.017 15.3388 0.063067 0.315323 -2.458615
2012-04-10 06:52:48 51°13.635 2°56.017 15.3444 0.063478 0.317434 -2.458615
2012-04-10 06:52:53 51°13.635 2°56.017 15.3461 0.062553 0.312686 -2.458615
2012-04-10 06:52:58 51°13.635 2°56.017 15.3481 0.062964 0.314796 -2.458615
2012-04-10 06:53:03 51°13.635 2°56.017 15.3501 0.062964 0.314796 -2.458615
2012-04-10 06:53:08 51°13.636 2°56.017 15.3492 0.062758 0.313746 -2.458615
2012-04-10 06:53:13 51°13.636 2°56.017 15.3482 0.062758 0.313746 -2.458615
2012-04-10 06:53:18 51°13.636 2°56.017 15.3468 0.063067 0.315333 -2.458615
2012-04-10 06:53:23 51°13.636 2°56.017 15.3497 0.062964 0.314806 -2.458615
2012-04-10 06:53:28 51°13.636 2°56.017 15.3518 0.062655 0.313228 -2.458615
2012-04-10 06:53:33 51°13.636 2°56.017 15.353 0.062655 0.313228 -2.458615
2012-04-10 06:53:38 51°13.636 2°56.018 15.3548 0.062553 0.312701 -2.458615
2012-04-10 06:53:43 51°13.636 2°56.018 15.3549 0.062347 0.311646 -2.458615
2012-04-10 06:53:48 51°13.636 2°56.017 15.3553 0.062347 0.311646 -2.458615
2012-04-10 06:53:53 51°13.636 2°56.017 15.3557 0.062655 0.313228 -2.458615
2012-04-10 06:53:58 51°13.636 2°56.017 15.3548 0.062758 0.31376 -2.458615
2012-04-10 06:54:03 51°13.636 2°56.017 15.3537 0.062758 0.31376 -2.458615
2012-04-10 06:54:08 51°13.636 2°56.017 15.3537 0.062861 0.314288 -2.458615
2012-04-10 06:54:13 51°13.636 2°56.018 15.3536 0.062758 0.31376 -2.458615
2012-04-10 06:54:19 51°13.636 2°56.018 15.3522 0.062655 0.313238 -2.458615
2012-04-10 06:54:23 51°13.636 2°56.018 15.3536 0.062861 0.314293 -2.458615
2012-04-10 06:54:28 51°13.636 2°56.018 15.356 0.062758 0.31377 -2.458615
2012-04-10 06:54:33 51°13.636 2°56.018 15.3557 0.062758 0.31377 -2.458615
2012-04-10 06:54:38 51°13.636 2°56.018 15.3557 0.062964 0.314825 -2.458615
2012-04-10 06:54:44 51°13.636 2°56.018 15.3547 0.062758 0.31377 -2.458615
2012-04-10 06:54:48 51°13.636 2°56.018 15.3561 0.062758 0.313775 -2.458615
2012-04-10 06:54:53 51°13.636 2°56.018 15.3564 0.062655 0.313248 -2.458615
2012-04-10 06:54:58 51°13.636 2°56.018 15.3579 0.062347 0.311665 -2.458615
2012-04-10 06:55:03 51°13.636 2°56.018 15.3604 0.062347 0.311665 -2.458615
2012-04-10 06:55:08 51°13.636 2°56.018 15.3613 0.062347 0.31167 -2.458615
2012-04-10 06:55:13 51°13.636 2°56.018 15.3643 0.06245 0.312198 -2.458615
2012-04-10 06:55:18 51°13.636 2°56.019 15.3634 0.062347 0.31167 -2.458615
2012-04-10 06:55:23 51°13.636 2°56.019 15.3651 0.06245 0.312203 -2.458615
2012-04-10 06:55:28 51°13.636 2°56.019 15.3651 0.062553 0.312735 -2.458615
2012-04-10 06:55:33 51°13.636 2°56.018 15.3653 0.062553 0.312735 -2.458615
2012-04-10 06:55:38 51°13.636 2°56.018 15.3655 0.062347 0.31168 -2.458615
2012-04-10 06:55:43 51°13.636 2°56.018 15.3663 0.062038 0.310098 -2.458615
2012-04-10 06:55:48 51°13.635 2°56.018 15.3648 0.062244 0.311153 -2.458615
2012-04-10 06:55:53 51°13.635 2°56.018 15.3651 0.062244 0.311158 -2.458615
2012-04-10 06:55:58 51°13.636 2°56.018 15.3651 0.062553 0.31274 -2.458615
2012-04-10 06:56:03 51°13.636 2°56.018 15.3656 0.062553 0.31274 -2.458615
2012-04-10 06:56:08 51°13.636 2°56.018 15.3637 0.062655 0.313272 -2.458615
2012-04-10 06:56:13 51°13.636 2°56.019 15.363 0.063272 0.316443 -2.458615
2012-04-10 06:56:18 51°13.636 2°56.019 15.3612 0.063478 0.317499 -2.458615
2012-04-10 06:56:23 51°13.636 2°56.019 15.3609 0.062964 0.31486 -2.458615
2012-04-10 06:56:28 51°13.636 2°56.019 15.3563 0.062964 0.314865 -2.458615
2012-04-10 06:56:33 51°13.636 2°56.019 15.3584 0.062964 0.314865 -2.458615
2012-04-10 06:56:38 51°13.636 2°56.019 15.3615 0.062038 0.310118 -2.458615
2012-04-10 06:56:43 51°13.636 2°56.019 15.3635 0.062964 0.314865 -2.458615
2012-04-10 06:56:48 51°13.636 2°56.019 15.3667 0.062347 0.311704 -2.458615
2012-04-10 06:56:53 51°13.636 2°56.019 15.3679 0.062347 0.311704 -2.458615
2012-04-10 06:56:58 51°13.636 2°56.019 15.3686 0.062347 0.311704 -2.458615
2012-04-10 06:57:04 51°13.636 2°56.019 15.369 0.062347 0.311704 -2.458615
2012-04-10 06:57:08 51°13.636 2°56.019 15.3684 0.062553 0.312764 -2.458615
2012-04-10 06:57:13 51°13.636 2°56.019 15.3687 0.062347 0.311709 -2.458615
2012-04-10 06:57:18 51°13.636 2°56.019 15.3676 0.06245 0.312237 -2.458615
2012-04-10 06:57:23 51°13.636 2°56.019 15.369 0.062553 0.312764 -2.458615
2012-04-10 06:57:28 51°13.635 2°56.018 15.3687 0.062553 0.312769 -2.458615
2012-04-10 06:57:33 51°13.635 2°56.018 15.3689 0.062553 0.312769 -2.458615
2012-04-10 06:57:38 51°13.635 2°56.018 15.3719 0.06245 0.312246 -2.458615
2012-04-10 06:57:43 51°13.634 2°56.018 15.3742 0.06245 0.312246 -2.458615
2012-04-10 06:57:48 51°13.634 2°56.018 15.3799 0.06245 0.312246 -2.458615
2012-04-10 06:57:53 51°13.634 2°56.017 15.3824 0.062038 0.310142 -2.458615
2012-04-10 06:57:58 51°13.635 2°56.017 15.3851 0.062244 0.311196 -2.458615
2012-04-10 06:58:03 51°13.635 2°56.017 15.3877 0.062244 0.311196 -2.458615
2012-04-10 06:58:08 51°13.635 2°56.018 15.3896 0.062141 0.310674 -2.458615
2012-04-10 06:58:13 51°13.635 2°56.018 15.3889 0.062038 0.310147 -2.458615
2012-04-10 06:58:18 51°13.635 2°56.018 15.3894 0.061936 0.309619 -2.458615
2012-04-10 06:58:23 51°13.634 2°56.018 15.3906 0.061936 0.309619 -2.458615
2012-04-10 06:58:28 51°13.634 2°56.017 15.3912 0.062038 0.310151 -2.458615
2012-04-10 06:58:33 51°13.634 2°56.018 15.3898 0.062038 0.310151 -2.458615
2012-04-10 06:58:38 51°13.634 2°56.017 15.3809 0.061524 0.30752 -2.458615
2012-04-10 06:58:43 51°13.634 2°56.017 15.3268 0.061524 0.307516 -2.458615
2012-04-10 06:58:48 51°13.634 2°56.016 15.3267 0.059982 0.299616 -2.458615
2012-04-10 06:58:53 51°13.635 2°56.013 15.2947 0.063169 0.315964 -2.458615
2012-04-10 06:58:58 51°13.635 2°56.01 15.4374 0.061936 0.309629 -2.458615
2012-04-10 06:59:03 51°13.637 2°56.005 15.4292 0.061936 0.309629 -2.458615
2012-04-10 06:59:08 51°13.638 2°56 15.4304 0.065123 0.326012 -2.458615
2012-04-10 06:59:13 51°13.64 2°55.995 15.4238 0.0643 0.321784 -2.458615
2012-04-10 06:59:18 51°13.641 2°55.989 15.4353 0.063889 0.31968 -2.458615
2012-04-10 06:59:23 51°13.643 2°55.982 15.4182 0.063272 0.316507 -2.458615
2012-04-10 06:59:28 51°13.645 2°55.975 15.4222 0.064095 0.320737 -2.458615
2012-04-10 06:59:33 51°13.647 2°55.968 15.4262 0.064095 0.320737 -2.458615
2012-04-10 06:59:38 51°13.649 2°55.961 15.4167 0.063889 0.31968 -2.458615
2012-04-10 06:59:43 51°13.65 2°55.953 15.4387 0.06502 0.325499 -2.458615
2012-04-10 06:59:48 51°13.652 2°55.945 15.4168 0.065637 0.328682 -2.458615
2012-04-10 06:59:53 51°13.653 2°55.938 15.4243 0.066357 0.332392 -2.458615
2012-04-10 06:59:58 51°13.655 2°55.932 15.4485 0.062141 0.310727 -2.458615
2012-04-10 07:00:03 51°13.656 2°55.927 15.4424 0.062141 0.310727 -2.458615
2012-04-10 07:00:08 51°13.657 2°55.924 15.4228 0.063478 0.317588 -2.458615
2012-04-10 07:00:13 51°13.658 2°55.921 15.4134 0.063683 0.318649 -2.458615
2012-04-10 07:00:18 51°13.659 2°55.919 15.4113 0.065843 0.329751 -2.458615
2012-04-10 07:00:23 51°13.659 2°55.916 15.4081 0.063067 0.315481 -2.458615
2012-04-10 07:00:28 51°13.66 2°55.912 15.4027 0.064403 0.322347 -2.458615
2012-04-10 07:00:33 51°13.66 2°55.907 15.3604 0.064403 0.322347 -2.458615
2012-04-10 07:00:38 51°13.661 2°55.902 15.4061 0.062347 0.311787 -2.458615
2012-04-10 07:00:43 51°13.662 2°55.896 15.3893 0.063581 0.318111 -2.458615
2012-04-10 07:00:48 51°13.664 2°55.89 15.4018 0.062141 0.310722 -2.458615
2012-04-10 07:00:53 51°13.665 2°55.883 15.4028 0.062964 0.314948 -2.458615
2012-04-10 07:00:58 51°13.666 2°55.877 15.4299 0.062758 0.313893 -2.458615
2012-04-10 07:01:03 51°13.667 2°55.87 15.4101 0.062758 0.313893 -2.458615
2012-04-10 07:01:08 51°13.668 2°55.863 15.4475 0.062758 0.313902 -2.458615
2012-04-10 07:01:13 51°13.67 2°55.856 15.4457 0.063272 0.316542 -2.458615
2012-04-10 07:01:19 51°13.672 2°55.847 15.4398 0.063067 0.315496 -2.458615
2012-04-10 07:01:23 51°13.673 2°55.841 15.4399 0.062861 0.314445 -2.458615
2012-04-10 07:01:28 51°13.675 2°55.833 15.4293 0.062655 0.313394 -2.458615
2012-04-10 07:01:33 51°13.677 2°55.825 15.4229 0.062655 0.313394 -2.458615
2012-04-10 07:01:38 51°13.679 2°55.817 15.4284 0.062141 0.310756 -2.458615
2012-04-10 07:01:43 51°13.682 2°55.81 15.4777 0.062861 0.314455 -2.458615
2012-04-10 07:01:48 51°13.685 2°55.802 15.417 0.062758 0.313927 -2.458615
2012-04-10 07:01:53 51°13.689 2°55.794 15.4197 0.063272 0.316566 -2.458615
2012-04-10 07:01:58 51°13.692 2°55.787 15.4422 0.062964 0.314993 -2.458615
2012-04-10 07:02:03 51°13.696 2°55.779 15.4377 0.062964 0.314993 -2.458615
2012-04-10 07:02:08 51°13.701 2°55.772 15.4503 0.063169 0.316053 -2.458615
2012-04-10 07:02:13 51°13.705 2°55.765 15.4338 0.063683 0.318704 -2.458615
2012-04-10 07:02:18 51°13.71 2°55.757 15.4005 0.062758 0.313952 -2.458615
2012-04-10 07:02:23 51°13.715 2°55.75 15.4588 0.063169 0.316068 -2.458615
2012-04-10 07:02:28 51°13.719 2°55.742 15.4764 0.063581 0.318181 -2.458615
2012-04-10 07:02:33 51°13.724 2°55.735 15.4642 0.063581 0.318181 -2.458615
2012-04-10 07:02:38 51°13.729 2°55.728 15.4375 0.062347 0.311846 -2.458615
2012-04-10 07:02:43 51°13.735 2°55.721 15.4331 0.062964 0.315007 -2.458615
2012-04-10 07:02:48 51°13.74 2°55.714 15.4517 0.062553 0.312901 -2.458615
2012-04-10 07:02:53 51°13.746 2°55.708 15.4427 0.062861 0.314484 -2.458615
2012-04-10 07:02:58 51°13.752 2°55.702 15.443 0.062244 0.311323 -2.458615
2012-04-10 07:03:03 51°13.758 2°55.696 15.4401 0.062244 0.311323 -2.458615
2012-04-10 07:03:08 51°13.764 2°55.69 15.4306 0.062244 0.311328 -2.458615
2012-04-10 07:03:13 51°13.77 2°55.685 15.4388 0.062347 0.31186 -2.458615
2012-04-10 07:03:18 51°13.776 2°55.679 15.4288 0.06173 0.3087 -2.458615
2012-04-10 07:03:23 51°13.782 2°55.674 15.416 0.062244 0.311342 -2.458615
2012-04-10 07:03:28 51°13.789 2°55.669 15.418 0.061936 0.309764 -2.458615
2012-04-10 07:03:33 51°13.796 2°55.665 15.4209 0.061936 0.309764 -2.458615
2012-04-10 07:03:39 51°13.803 2°55.659 15.42 0.062347 0.31188 -2.458615
2012-04-10 07:03:43 51°13.809 2°55.655 15.4058 0.061936 0.309774 -2.458615
2012-04-10 07:03:48 51°13.816 2°55.651 15.4026 0.062347 0.311885 -2.458615
2012-04-10 07:03:53 51°13.823 2°55.646 15.4152 0.062655 0.313468 -2.458615
2012-04-10 07:03:58 51°13.83 2°55.642 15.435 0.062758 0.313996 -2.458615
2012-04-10 07:04:03 51°13.837 2°55.638 15.4816 0.062758 0.313996 -2.458615
2012-04-10 07:04:08 51°13.843 2°55.634 15.4384 0.062861 0.314529 -2.458615
2012-04-10 07:04:13 51°13.85 2°55.63 15.4 0.063375 0.317169 -2.458615
2012-04-10 07:04:18 51°13.857 2°55.626 15.4264 0.061627 0.308201 -2.458615
2012-04-10 07:04:23 51°13.863 2°55.623 15.424 0.062141 0.310839 -2.458615
2012-04-10 07:04:28 51°13.869 2°55.62 15.4586 0.062141 0.310834 -2.458615
2012-04-10 07:04:33 51°13.876 2°55.617 15.4597 0.062141 0.310834 -2.458615
2012-04-10 07:04:38 51°13.883 2°55.615 15.4612 0.061627 0.308206 -2.458615
2012-04-10 07:04:43 51°13.889 2°55.612 15.455 0.063581 0.31824 -2.458615
2012-04-10 07:04:48 51°13.896 2°55.61 15.4381 0.06173 0.308743 -2.458615
2012-04-10 07:04:53 51°13.902 2°55.609 15.4368 0.063683 0.318779 -2.458615
2012-04-10 07:04:58 51°13.908 2°55.607 15.4585 0.063169 0.316137 -2.458615
2012-04-10 07:05:03 51°13.914 2°55.606 15.4329 0.063169 0.316137 -2.458615
2012-04-10 07:05:08 51°13.919 2°55.605 15.4691 0.062038 0.310331 -2.458615
2012-04-10 07:05:13 51°13.925 2°55.605 15.463 0.062244 0.311386 -2.458615
2012-04-10 07:05:18 51°13.931 2°55.604 15.4828 0.062141 0.310863 -2.458615
2012-04-10 07:05:23 51°13.936 2°55.605 15.4129 0.061627 0.30823 -2.458615
2012-04-10 07:05:28 51°13.941 2°55.605 15.4144 0.06245 0.312456 -2.458615
2012-04-10 07:05:33 51°13.946 2°55.606 15.4313 0.06245 0.312456 -2.458615
2012-04-10 07:05:38 51°13.951 2°55.607 15.4585 0.062758 0.314045 -2.458615
2012-04-10 07:05:43 51°13.956 2°55.609 15.4524 0.063067 0.315634 -2.458615
2012-04-10 07:05:48 51°13.96 2°55.61 15.464 0.062553 0.312999 -2.458615
2012-04-10 07:05:53 51°13.965 2°55.611 15.4571 0.062655 0.313532 -2.458615
2012-04-10 07:05:58 51°13.969 2°55.612 15.4521 0.061113 0.305613 -2.458615
2012-04-10 07:06:03 51°13.973 2°55.614 15.4505 0.061113 0.305613 -2.458615
2012-04-10 07:06:08 51°13.975 2°55.614 15.4516 0.060805 0.304031 -2.458615
2012-04-10 07:06:13 51°13.976 2°55.614 15.4538 0.059262 0.296126 -2.458615
2012-04-10 07:06:18 51°13.976 2°55.613 15.4514 0.060702 0.3035 -2.458615
2012-04-10 07:06:24 51°13.976 2°55.61 15.3583 0.05844 0.291913 -2.458615
2012-04-10 07:06:28 51°13.975 2°55.607 15.3543 0.060393 0.301914 -2.458615
2012-04-10 07:06:33 51°13.975 2°55.603 15.2574 0.060393 0.301914 -2.458615
2012-04-10 07:06:38 51°13.975 2°55.599 15.3645 0.059365 0.296648 -2.458615
2012-04-10 07:06:43 51°13.975 2°55.594 15.3962 0.060188 0.30087 -2.458615
2012-04-10 07:06:48 51°13.976 2°55.589 15.2829 0.058029 0.289832 -2.458615
2012-04-10 07:06:53 51°13.976 2°55.582 15.0679 0.053094 0.264642 -2.458615
2012-04-10 07:06:58 51°13.977 2°55.575 15.2878 0.054636 0.272478 -2.458615
2012-04-10 07:07:03 51°13.979 2°55.568 15.2966 0.054636 0.272478 -2.458615
2012-04-10 07:07:08 51°13.982 2°55.56 15.2914 0.05515 0.275115 -2.458615
2012-04-10 07:07:13 51°13.985 2°55.554 15.3024 0.053299 0.265693 -2.458615
2012-04-10 07:07:18 51°13.988 2°55.547 15.3126 0.054636 0.272504 -2.458615
2012-04-10 07:07:23 51°13.992 2°55.541 15.3314 0.056589 0.282482 -2.458615
2012-04-10 07:07:28 51°13.997 2°55.536 15.3905 0.058337 0.291428 -2.458615
2012-04-10 07:07:33 51°14.002 2°55.53 15.4114 0.058337 0.291428 -2.458615
2012-04-10 07:07:38 51°14.007 2°55.525 15.4339 0.059777 0.298814 -2.458615
2012-04-10 07:07:43 51°14.013 2°55.52 15.4434 0.060085 0.300404 -2.458615
2012-04-10 07:07:48 51°14.019 2°55.514 15.4458 0.058954 0.294626 -2.458615
2012-04-10 07:07:53 51°14.025 2°55.508 15.4443 0.05844 0.291995 -2.458615
2012-04-10 07:07:58 51°14.032 2°55.502 15.4427 0.057309 0.286211 -2.458615
2012-04-10 07:08:03 51°14.039 2°55.496 15.413 0.057309 0.286211 -2.458615
2012-04-10 07:08:08 51°14.047 2°55.49 15.3926 0.058029 0.289891 -2.458615
2012-04-10 07:08:13 51°14.055 2°55.483 15.3884 0.056898 0.284106 -2.458615
2012-04-10 07:08:18 51°14.063 2°55.476 15.3862 0.057823 0.288835 -2.458615
2012-04-10 07:08:23 51°14.072 2°55.469 15.3817 0.054739 0.273074 -2.458615
2012-04-10 07:08:28 51°14.08 2°55.461 15.3631 0.056075 0.279892 -2.458615
2012-04-10 07:08:33 51°14.089 2°55.454 15.3588 0.056075 0.279892 -2.458615
2012-04-10 07:08:38 51°14.098 2°55.447 15.3569 0.055561 0.277269 -2.458615
2012-04-10 07:08:43 51°14.108 2°55.439 15.3412 0.055253 0.275691 -2.458615
2012-04-10 07:08:48 51°14.117 2°55.431 15.3561 0.055253 0.275687 -2.458615
2012-04-10 07:08:53 51°14.126 2°55.423 15.3546 0.05587 0.278843 -2.458615
2012-04-10 07:08:58 51°14.136 2°55.414 15.354 0.054739 0.273074 -2.458615
2012-04-10 07:09:03 51°14.145 2°55.406 15.3354 0.054739 0.273074 -2.458615
2012-04-10 07:09:08 51°14.155 2°55.397 15.3747 0.05515 0.275171 -2.458615
2012-04-10 07:09:13 51°14.165 2°55.388 15.3669 0.055253 0.2757 -2.458615
2012-04-10 07:09:18 51°14.174 2°55.378 15.3499 0.054533 0.272034 -2.458615
2012-04-10 07:09:23 51°14.184 2°55.369 15.3439 0.054739 0.273091 -2.458615
2012-04-10 07:09:28 51°14.194 2°55.361 15.3575 0.055561 0.27729 -2.458615
2012-04-10 07:09:33 51°14.204 2°55.352 15.3644 0.055561 0.27729 -2.458615
2012-04-10 07:09:38 51°14.214 2°55.343 15.3599 0.052888 0.263669 -2.458615
2012-04-10 07:09:43 51°14.224 2°55.334 15.3659 0.055253 0.275721 -2.458615
2012-04-10 07:09:48 51°14.234 2°55.325 15.3815 0.055458 0.276779 -2.458615
2012-04-10 07:09:53 51°14.244 2°55.316 15.3771 0.056178 0.280456 -2.458615
2012-04-10 07:09:59 51°14.256 2°55.305 15.3664 0.054122 0.269964 -2.458615
2012-04-10 07:10:03 51°14.265 2°55.298 15.3512 0.054122 0.269964 -2.458615
2012-04-10 07:10:08 51°14.275 2°55.29 15.3647 0.055047 0.274677 -2.458615
2012-04-10 07:10:13 51°14.285 2°55.281 15.3982 0.05587 0.278877 -2.458615
2012-04-10 07:10:18 51°14.296 2°55.272 15.3695 0.053711 0.267865 -2.458615
2012-04-10 07:10:23 51°14.307 2°55.263 15.3598 0.053916 0.268916 -2.458615
2012-04-10 07:10:28 51°14.318 2°55.254 15.4202 0.054944 0.274161 -2.458615
2012-04-10 07:10:33 51°14.329 2°55.245 15.4144 0.054944 0.274161 -2.458615
2012-04-10 07:10:38 51°14.339 2°55.234 15.4012 0.054533 0.272064 -2.458615
2012-04-10 07:10:43 51°14.35 2°55.224 15.3975 0.054944 0.274165 -2.458615
2012-04-10 07:10:48 51°14.36 2°55.214 15.3903 0.05186 0.258457 -2.458615
2012-04-10 07:10:53 51°14.371 2°55.203 15.3626 0.052991 0.264209 -2.458615
2012-04-10 07:10:58 51°14.382 2°55.193 15.3646 0.053916 0.268925 -2.458615
2012-04-10 07:11:03 51°14.393 2°55.183 15.3629 0.053916 0.268925 -2.458615
2012-04-10 07:11:08 51°14.405 2°55.173 15.3752 0.053402 0.266311 -2.458615
2012-04-10 07:11:13 51°14.416 2°55.162 15.3632 0.053402 0.266311 -2.458615
2012-04-10 07:11:18 51°14.427 2°55.15 15.2897 0.052066 0.25951 -2.458615
2012-04-10 07:11:23 51°14.439 2°55.139 15.3228 0.053402 0.266307 -2.458615
2012-04-10 07:11:28 51°14.451 2°55.128 15.2889 0.05186 0.258457 -2.458615
2012-04-10 07:11:33 51°14.463 2°55.117 15.3018 0.05186 0.258457 -2.458615
2012-04-10 07:11:38 51°14.475 2°55.106 15.3364 0.051551 0.256881 -2.458615
2012-04-10 07:11:43 51°14.487 2°55.094 15.2812 0.053299 0.265771 -2.458615
2012-04-10 07:11:48 51°14.499 2°55.083 15.2617 0.053813 0.268409 -2.458615
2012-04-10 07:11:52 51°14.508 2°55.074 15.2653 0.052682 0.262648 -2.458615
2012-04-10 07:11:58 51°14.523 2°55.059 15.2807 0.049701 0.247479 -2.458615
2012-04-10 07:12:02 51°14.532 2°55.049 15.295 0.049701 0.247479 -2.458615
2012-04-10 07:12:07 51°14.544 2°55.037 15.2772 0.050112 0.249542 -2.458615
2012-04-10 07:12:12 51°14.556 2°55.023 15.2053 0.04528 0.225072 -2.458615
2012-04-10 07:12:17 51°14.568 2°55.01 15.291 0.047233 0.234926 -2.458615
2012-04-10 07:12:21 51°14.577 2°54.998 15.2349 0.046205 0.229731 -2.458615
2012-04-10 07:12:26 51°14.589 2°54.982 15.273 0.043841 0.217805 -2.458615
2012-04-10 07:12:31 51°14.6 2°54.966 15.248 0.043841 0.217805 -2.458615
2012-04-10 07:12:36 51°14.61 2°54.948 15.2651 0.043224 0.214693 -2.458615
2012-04-10 07:12:40 51°14.618 2°54.933 15.1951 0.044046 0.218837 -2.458615
2012-04-10 07:12:45 51°14.628 2°54.913 15.1281 0.043532 0.216259 -2.458615
2012-04-10 07:12:50 51°14.637 2°54.893 15.0791 0.042812 0.212641 -2.458615
2012-04-10 07:12:55 51°14.645 2°54.871 15.1361 0.041476 0.205929 -2.458615
2012-04-10 07:13:00 51°14.653 2°54.849 15.1078 0.041476 0.205929 -2.458615
2012-04-10 07:13:05 51°14.659 2°54.825 15.0956 0.041784 0.207481 -2.458615
2012-04-10 07:13:10 51°14.665 2°54.801 15.1054 0.041065 0.203875 -2.458615
2012-04-10 07:13:15 51°14.67 2°54.775 15.0924 0.041579 0.206455 -2.458615
2012-04-10 07:13:20 51°14.673 2°54.749 15.0761 0.041476 0.205942 -2.458615
2012-04-10 07:13:25 51°14.675 2°54.723 15.0817 0.043018 0.213705 -2.458615
2012-04-10 07:13:30 51°14.676 2°54.696 15.0585 0.043018 0.213705 -2.458615
2012-04-10 07:13:35 51°14.676 2°54.67 15.0515 0.042504 0.211129 -2.458615
2012-04-10 07:13:40 51°14.673 2°54.644 15.0632 0.04199 0.208558 -2.458615
2012-04-10 07:13:44 51°14.67 2°54.623 15.0527 0.043018 0.213734 -2.458615
2012-04-10 07:13:50 51°14.664 2°54.593 15.0492 0.040962 0.203405 -2.458615
2012-04-10 07:13:55 51°14.657 2°54.569 14.9539 0.041784 0.207528 -2.458615
2012-04-10 07:14:00 51°14.649 2°54.546 15.0317 0.041784 0.207528 -2.458615
2012-04-10 07:14:05 51°14.641 2°54.523 14.9554 0.043738 0.217343 -2.458615
2012-04-10 07:14:10 51°14.631 2°54.5 15.0173 0.044971 0.223609 -2.458615
2012-04-10 07:14:15 51°14.621 2°54.478 14.9072 0.041682 0.207031 -2.458615
2012-04-10 07:14:20 51°14.61 2°54.457 14.9139 0.044355 0.220458 -2.458615
2012-04-10 07:14:24 51°14.601 2°54.44 14.9526 0.046205 0.229791 -2.458615
2012-04-10 07:14:30 51°14.588 2°54.414 14.8306 0.046205 0.229791 -2.458615
2012-04-10 07:14:35 51°14.577 2°54.392 14.8202 0.051654 0.257443 -2.458615
2012-04-10 07:14:40 51°14.566 2°54.369 14.7784 0.047439 0.236031 -2.458615
2012-04-10 07:14:45 51°14.556 2°54.345 14.8348 0.048467 0.241238 -2.458615
2012-04-10 07:14:50 51°14.546 2°54.322 14.9164 0.05258 0.262173 -2.458615
2012-04-10 07:14:55 51°14.537 2°54.297 14.9497 0.048364 0.241074 -2.458615
2012-04-10 07:15:00 51°14.528 2°54.273 14.8314 0.048364 0.241074 -2.458615
2012-04-10 07:15:05 51°14.519 2°54.248 14.8903 0.060085 0.301062 -2.458615
2012-04-10 07:15:10 51°14.51 2°54.223 14.8882 0.054944 0.27466 -2.458615
2012-04-10 07:15:15 51°14.502 2°54.198 14.8507 0.053094 0.265304 -2.458615
2012-04-10 07:15:20 51°14.493 2°54.173 14.9395 0.059365 0.297702 -2.458615
2012-04-10 07:15:25 51°14.485 2°54.148 14.9071 0.047233 0.23557 -2.458615
2012-04-10 07:15:30 51°14.476 2°54.123 14.9072 0.047233 0.23557 -2.458615
2012-04-10 07:15:35 51°14.467 2°54.098 14.9332 0.047953 0.239184 -2.458615
2012-04-10 07:15:40 51°14.458 2°54.074 14.9013 0.050112 0.250295 -2.458615
2012-04-10 07:15:45 51°14.448 2°54.05 14.8949 0.050421 0.25192 -2.458615
2012-04-10 07:15:50 51°14.438 2°54.026 14.903 0.057206 0.286807 -2.458615
2012-04-10 07:15:55 51°14.428 2°54.003 14.8588 0.050729 0.253778 -2.458615
2012-04-10 07:16:00 51°14.418 2°53.979 14.8721 0.050729 0.253778 -2.458615
2012-04-10 07:16:05 51°14.407 2°53.956 14.8592 0.050626 0.253329 -2.458615
2012-04-10 07:16:10 51°14.397 2°53.933 14.8348 0.050215 0.251208 -2.458615
2012-04-10 07:16:15 51°14.386 2°53.909 14.9017 0.049701 0.248534 -2.458615
2012-04-10 07:16:20 51°14.376 2°53.887 14.8574 0.047336 0.236241 -2.458615
2012-04-10 07:16:24 51°14.367 2°53.869 14.8657 0.04785 0.238824 -2.458615
2012-04-10 07:16:30 51°14.353 2°53.842 14.8542 0.04785 0.238824 -2.458615
2012-04-10 07:16:35 51°14.343 2°53.82 14.8348 0.045486 0.226857 -2.458615
2012-04-10 07:16:40 51°14.331 2°53.798 14.8586 0.055664 0.279091 -2.458615
2012-04-10 07:16:45 51°14.32 2°53.776 14.8321 0.052682 0.263862 -2.458615
2012-04-10 07:16:50 51°14.309 2°53.754 14.8726 0.051963 0.260172 -2.458615
2012-04-10 07:16:55 51°14.298 2°53.731 14.8266 0.052888 0.26474 -2.458615
2012-04-10 07:17:00 51°14.287 2°53.709 14.8696 0.052888 0.26474 -2.458615
2012-04-10 07:17:05 51°14.276 2°53.686 14.8234 0.051551 0.257927 -2.458615
2012-04-10 07:17:10 51°14.265 2°53.664 14.8347 0.052374 0.262138 -2.458615
2012-04-10 07:17:15 51°14.254 2°53.64 14.8514 0.05587 0.280049 -2.458615
2012-04-10 07:17:20 51°14.244 2°53.617 14.7813 0.050626 0.253183 -2.458615
2012-04-10 07:17:25 51°14.234 2°53.594 14.8373 0.062347 0.313517 -2.458615
2012-04-10 07:17:30 51°14.224 2°53.57 14.8555 0.062347 0.313517 -2.458615
2012-04-10 07:17:35 51°14.214 2°53.547 14.834 0.054533 0.273205 -2.458615
2012-04-10 07:17:40 51°14.205 2°53.523 14.823 0.053505 0.267885 -2.458615
2012-04-10 07:17:45 51°14.195 2°53.5 14.7891 0.057515 0.288458 -2.458615
2012-04-10 07:17:50 51°14.185 2°53.476 14.8082 0.056487 0.283274 -2.458615
2012-04-10 07:17:55 51°14.175 2°53.453 14.8003 0.053299 0.267013 -2.458615
2012-04-10 07:18:00 51°14.165 2°53.429 14.8475 0.053299 0.267013 -2.458615
2012-04-10 07:18:05 51°14.155 2°53.406 14.8455 0.050009 0.250358 -2.458615
2012-04-10 07:18:10 51°14.145 2°53.383 14.8325 0.048981 0.245116 -2.458615
2012-04-10 07:18:15 51°14.135 2°53.36 14.8482 0.049084 0.245636 -2.458615
2012-04-10 07:18:20 51°14.124 2°53.337 14.8589 0.053916 0.270216 -2.458615
2012-04-10 07:18:24 51°14.116 2°53.319 14.837 0.050112 0.250734 -2.458615
2012-04-10 07:18:30 51°14.104 2°53.292 14.8138 0.050112 0.250734 -2.458615
2012-04-10 07:18:35 51°14.093 2°53.269 14.834 0.046719 0.233454 -2.458615
2012-04-10 07:18:40 51°14.082 2°53.248 14.7765 0.043532 0.217314 -2.458615
2012-04-10 07:18:44 51°14.073 2°53.231 14.8214 0.0643 0.324067 -2.458615
2012-04-10 07:18:50 51°14.06 2°53.204 14.7925 0.057103 0.287111 -2.458615
2012-04-10 07:18:55 51°14.049 2°53.182 14.7559 0.05916 0.297592 -2.458615
2012-04-10 07:19:00 51°14.038 2°53.16 14.7758 0.05916 0.297592 -2.458615
2012-04-10 07:19:05 51°14.027 2°53.138 14.7725 0.053711 0.269458 -2.458615
2012-04-10 07:19:10 51°14.016 2°53.116 14.7803 0.056384 0.283052 -2.458615
2012-04-10 07:19:15 51°14.006 2°53.094 14.7595 0.056692 0.284597 -2.458615
2012-04-10 07:19:20 51°13.995 2°53.071 14.7663 0.053608 0.268784 -2.458615
2012-04-10 07:19:24 51°13.987 2°53.053 14.7725 0.055561 0.278816 -2.458615
2012-04-10 07:19:30 51°13.975 2°53.025 14.7345 0.055561 0.278816 -2.458615
2012-04-10 07:19:35 51°13.965 2°53.003 14.7735 0.05916 0.29741 -2.458615
2012-04-10 07:19:40 51°13.955 2°52.979 14.7335 0.055047 0.276287 -2.458615
2012-04-10 07:19:45 51°13.946 2°52.956 14.7573 0.05258 0.263624 -2.458615
2012-04-10 07:19:50 51°13.936 2°52.933 14.7733 0.050009 0.250479 -2.458615
2012-04-10 07:19:55 51°13.926 2°52.91 14.7816 0.053711 0.269353 -2.458615
2012-04-10 07:20:00 51°13.917 2°52.886 14.7707 0.053711 0.269353 -2.458615
2012-04-10 07:20:05 51°13.907 2°52.863 14.786 0.050318 0.252022 -2.458615
2012-04-10 07:20:10 51°13.898 2°52.839 14.7721 0.05186 0.260019 -2.458615
2012-04-10 07:20:15 51°13.888 2°52.816 14.7449 0.04857 0.243153 -2.458615
2012-04-10 07:20:20 51°13.878 2°52.793 14.7644 0.050112 0.251039 -2.458615
2012-04-10 07:20:24 51°13.87 2°52.775 14.7628 0.053299 0.267305 -2.458615
2012-04-10 07:20:30 51°13.858 2°52.747 14.7694 0.053299 0.267305 -2.458615
2012-04-10 07:20:35 51°13.848 2°52.725 14.7574 0.048159 0.241028 -2.458615
2012-04-10 07:20:40 51°13.838 2°52.701 14.7214 0.052785 0.264685 -2.458615
2012-04-10 07:20:44 51°13.829 2°52.684 14.7634 0.05443 0.273208 -2.458615
2012-04-10 07:20:50 51°13.816 2°52.657 14.7712 0.050523 0.25321 -2.458615
2012-04-10 07:20:55 51°13.806 2°52.634 14.7689 0.051654 0.258943 -2.458615
2012-04-10 07:21:00 51°13.795 2°52.612 14.7596 0.051654 0.258943 -2.458615
2012-04-10 07:21:04 51°13.787 2°52.595 14.7711 0.049187 0.246336 -2.458615
2012-04-10 07:21:10 51°13.774 2°52.569 14.7561 0.048467 0.242686 -2.458615
2012-04-10 07:21:15 51°13.763 2°52.547 14.763 0.044766 0.22393 -2.458615
2012-04-10 07:21:20 51°13.751 2°52.525 14.7191 0.062141 0.313023 -2.458615
2012-04-10 07:21:25 51°13.74 2°52.504 14.762 0.05443 0.273319 -2.458615
2012-04-10 07:21:30 51°13.729 2°52.482 14.7627 0.05443 0.273319 -2.458615
2012-04-10 07:21:35 51°13.719 2°52.46 14.7068 0.058748 0.295514 -2.458615
2012-04-10 07:21:40 51°13.708 2°52.438 14.7213 0.061627 0.310336 -2.458615
2012-04-10 07:21:44 51°13.699 2°52.421 14.7316 0.050832 0.254821 -2.458615
2012-04-10 07:21:50 51°13.686 2°52.395 14.7494 0.064095 0.323187 -2.458615
2012-04-10 07:21:55 51°13.675 2°52.372 14.7393 0.056795 0.285541 -2.458615
2012-04-10 07:22:00 51°13.665 2°52.35 14.7489 0.056795 0.285541 -2.458615
2012-04-10 07:22:05 51°13.654 2°52.328 14.7293 0.049701 0.249176 -2.458615
2012-04-10 07:22:10 51°13.644 2°52.305 14.7544 0.056075 0.281884 -2.458615
2012-04-10 07:22:15 51°13.633 2°52.283 14.7454 0.051037 0.25602 -2.458615
2012-04-10 07:22:20 51°13.623 2°52.261 14.7365 0.059674 0.300366 -2.458615
2012-04-10 07:22:25 51°13.612 2°52.238 14.7527 0.052785 0.264946 -2.458615
2012-04-10 07:22:30 51°13.602 2°52.215 14.7246 0.052785 0.264946 -2.458615
2012-04-10 07:22:35 51°13.592 2°52.192 14.7515 0.050112 0.251277 -2.458615
2012-04-10 07:22:40 51°13.582 2°52.169 14.7475 0.052477 0.263456 -2.458615
2012-04-10 07:22:44 51°13.574 2°52.151 14.737 0.054739 0.275092 -2.458615
2012-04-10 07:22:50 51°13.562 2°52.123 14.7516 0.052374 0.262941 -2.458615
2012-04-10 07:22:55 51°13.552 2°52.1 14.7504 0.051963 0.260801 -2.458615
2012-04-10 07:23:00 51°13.542 2°52.076 14.719 0.051963 0.260801 -2.458615
2012-04-10 07:23:04 51°13.535 2°52.058 14.7529 0.049804 0.249721 -2.458615
2012-04-10 07:23:10 51°13.523 2°52.029 14.7547 0.050009 0.250732 -2.458615
2012-04-10 07:23:15 51°13.513 2°52.006 14.7372 0.052682 0.264423 -2.458615
2012-04-10 07:23:20 51°13.503 2°51.983 14.7379 0.053094 0.266552 -2.458615
2012-04-10 07:23:25 51°13.493 2°51.96 14.73 0.055664 0.279734 -2.458615
2012-04-10 07:23:30 51°13.483 2°51.938 14.7382 0.055664 0.279734 -2.458615
2012-04-10 07:23:35 51°13.473 2°51.915 14.7118 0.055664 0.279734 -2.458615
2012-04-10 07:23:40 51°13.462 2°51.893 14.7212 0.048673 0.243912 -2.458615
2012-04-10 07:23:44 51°13.453 2°51.876 14.7328 0.052271 0.262324 -2.458615
2012-04-10 07:23:50 51°13.44 2°51.849 14.7289 0.058234 0.293041 -2.458615
2012-04-10 07:23:55 51°13.429 2°51.828 14.7083 0.062758 0.316373 -2.458615
2012-04-10 07:24:00 51°13.418 2°51.806 14.7315 0.062758 0.316373 -2.458615
2012-04-10 07:24:05 51°13.407 2°51.784 14.7292 0.052271 0.262435 -2.458615
2012-04-10 07:24:10 51°13.396 2°51.763 14.6861 0.057412 0.288894 -2.458615
2012-04-10 07:24:15 51°13.385 2°51.741 14.7293 0.066151 0.334079 -2.458615
2012-04-10 07:24:20 51°13.374 2°51.719 14.7045 0.059982 0.302114 -2.458615
2012-04-10 07:24:25 51°13.364 2°51.698 14.7275 0.058543 0.2947 -2.458615
2012-04-10 07:24:30 51°13.353 2°51.675 14.7187 0.058543 0.2947 -2.458615
2012-04-10 07:24:35 51°13.343 2°51.653 14.7301 0.059263 0.298399 -2.458615
2012-04-10 07:24:40 51°13.333 2°51.63 14.7447 0.059468 0.299456 -2.458615
2012-04-10 07:24:45 51°13.323 2°51.608 14.7084 0.056692 0.28516 -2.458615
2012-04-10 07:24:50 51°13.313 2°51.585 14.7127 0.058132 0.292585 -2.458615
2012-04-10 07:24:55 51°13.303 2°51.562 14.7088 0.06101 0.30747 -2.458615
2012-04-10 07:25:00 51°13.293 2°51.539 14.7326 0.06101 0.30747 -2.458615
2012-04-10 07:25:04 51°13.285 2°51.521 14.6895 0.053197 0.267196 -2.458615
2012-04-10 07:25:10 51°13.273 2°51.493 14.7188 0.064917 0.327666 -2.458615
2012-04-10 07:25:15 51°13.263 2°51.47 14.7245 0.055047 0.276685 -2.458615
2012-04-10 07:25:20 51°13.254 2°51.447 14.6677 0.058954 0.296864 -2.458615
2012-04-10 07:25:25 51°13.243 2°51.425 14.7177 0.055458 0.278913 -2.458615
2012-04-10 07:25:30 51°13.233 2°51.402 14.7181 0.055458 0.278913 -2.458615
2012-04-10 07:25:35 51°13.222 2°51.38 14.7156 0.049804 0.249845 -2.458615
2012-04-10 07:25:40 51°13.211 2°51.359 14.7029 0.051757 0.259886 -2.458615
2012-04-10 07:25:44 51°13.203 2°51.341 14.709 0.051654 0.259392 -2.458615
2012-04-10 07:25:50 51°13.19 2°51.315 14.7062 0.054225 0.272588 -2.458615
2012-04-10 07:25:55 51°13.179 2°51.293 14.7292 0.051757 0.259964 -2.458615
2012-04-10 07:26:00 51°13.169 2°51.27 14.6984 0.051757 0.259964 -2.458615
2012-04-10 07:26:05 51°13.158 2°51.248 14.7211 0.05916 0.298047 -2.458615
2012-04-10 07:26:10 51°13.148 2°51.225 14.7254 0.055253 0.27793 -2.458615
2012-04-10 07:26:15 51°13.138 2°51.202 14.7132 0.053197 0.267355 -2.458615
2012-04-10 07:26:20 51°13.128 2°51.179 14.7285 0.05772 0.290593 -2.458615
2012-04-10 07:26:25 51°13.118 2°51.156 14.7255 0.059468 0.299579 -2.458615
2012-04-10 07:26:30 51°13.109 2°51.133 14.7337 0.059468 0.299579 -2.458615
2012-04-10 07:26:35 51°13.1 2°51.109 14.7285 0.049598 0.248856 -2.458615
2012-04-10 07:26:40 51°13.09 2°51.086 14.7328 0.057206 0.287934 -2.458615
2012-04-10 07:26:45 51°13.081 2°51.062 14.7266 0.051757 0.259964 -2.458615
2012-04-10 07:26:50 51°13.071 2°51.038 14.7274 0.047645 0.238914 -2.458615
2012-04-10 07:26:55 51°13.061 2°51.015 14.7176 0.050215 0.252034 -2.458615
2012-04-10 07:27:00 51°13.051 2°50.992 14.7273 0.050215 0.252034 -2.458615
2012-04-10 07:27:04 51°13.043 2°50.974 14.7282 0.050112 0.251508 -2.458615
2012-04-10 07:27:10 51°13.032 2°50.946 14.7415 0.049495 0.24835 -2.458615
2012-04-10 07:27:15 51°13.022 2°50.923 14.7324 0.058748 0.295901 -2.458615
2012-04-10 07:27:20 51°13.012 2°50.899 14.7383 0.048262 0.242047 -2.458615
2012-04-10 07:27:24 51°13.004 2°50.881 14.7432 0.050832 0.255164 -2.458615
2012-04-10 07:27:30 51°12.992 2°50.853 14.73 0.050832 0.255164 -2.458615
2012-04-10 07:27:35 51°12.982 2°50.83 14.7342 0.052785 0.265248 -2.458615
2012-04-10 07:27:40 51°12.972 2°50.807 14.7374 0.049495 0.248396 -2.458615
2012-04-10 07:27:45 51°12.963 2°50.784 14.732 0.044252 0.221636 -2.458615
2012-04-10 07:27:50 51°12.952 2°50.761 14.7285 0.051963 0.260993 -2.458615
2012-04-10 07:27:55 51°12.942 2°50.738 14.7229 0.050626 0.254155 -2.458615
2012-04-10 07:28:00 51°12.932 2°50.716 14.7133 0.050626 0.254155 -2.458615
2012-04-10 07:28:04 51°12.924 2°50.697 14.7207 0.050729 0.254693 -2.458615
2012-04-10 07:28:10 51°12.912 2°50.67 14.7411 0.063478 0.320407 -2.458615
2012-04-10 07:28:15 51°12.903 2°50.646 14.7393 0.059777 0.301219 -2.458615
2012-04-10 07:28:20 51°12.894 2°50.622 14.699 0.056589 0.284855 -2.458615
2012-04-10 07:28:25 51°12.885 2°50.598 14.73 0.057309 0.2886 -2.458615
2012-04-10 07:28:30 51°12.877 2°50.573 14.7213 0.057309 0.2886 -2.458615
2012-04-10 07:28:35 51°12.869 2°50.549 14.7438 0.056898 0.286462 -2.458615
2012-04-10 07:28:40 51°12.861 2°50.523 14.7323 0.053402 0.268469 -2.458615
2012-04-10 07:28:45 51°12.853 2°50.499 14.7473 0.062039 0.313035 -2.458615
2012-04-10 07:28:50 51°12.845 2°50.474 14.7519 0.053608 0.269538 -2.458615
2012-04-10 07:28:55 51°12.837 2°50.448 14.7578 0.052477 0.26372 -2.458615
2012-04-10 07:29:00 51°12.83 2°50.423 14.7484 0.052477 0.26372 -2.458615
2012-04-10 07:29:05 51°12.822 2°50.398 14.7535 0.051757 0.260041 -2.458615
2012-04-10 07:29:10 51°12.814 2°50.373 14.7447 0.051963 0.261111 -2.458615
2012-04-10 07:29:15 51°12.807 2°50.348 14.7546 0.052477 0.263753 -2.458615
2012-04-10 07:29:20 51°12.799 2°50.323 14.7407 0.050112 0.25161 -2.458615
2012-04-10 07:29:25 51°12.791 2°50.298 14.7411 0.049804 0.250009 -2.458615
2012-04-10 07:29:30 51°12.783 2°50.273 14.7444 0.049804 0.250009 -2.458615
2012-04-10 07:29:35 51°12.775 2°50.248 14.7329 0.048776 0.244714 -2.458615
2012-04-10 07:29:40 51°12.766 2°50.224 14.7104 0.045794 0.229504 -2.458615
2012-04-10 07:29:44 51°12.759 2°50.205 14.7371 0.051552 0.258922 -2.458615
2012-04-10 07:29:50 51°12.748 2°50.177 14.7404 0.044766 0.224266 -2.458615
2012-04-10 07:29:55 51°12.738 2°50.154 14.7354 0.056281 0.283248 -2.458615
2012-04-10 07:30:00 51°12.729 2°50.13 14.7443 0.056281 0.283248 -2.458615
2012-04-10 07:30:05 51°12.72 2°50.106 14.7338 0.053813 0.270522 -2.458615
2012-04-10 07:30:10 51°12.71 2°50.083 14.7495 0.054739 0.275312 -2.458615
2012-04-10 07:30:15 51°12.701 2°50.059 14.7274 0.054842 0.275832 -2.458615
2012-04-10 07:30:20 51°12.692 2°50.035 14.7439 0.054122 0.272124 -2.458615
2012-04-10 07:30:24 51°12.684 2°50.016 14.7433 0.053299 0.267891 -2.458615
2012-04-10 07:30:30 51°12.674 2°49.987 14.7247 0.053299 0.267891 -2.458615
2012-04-10 07:30:35 51°12.665 2°49.962 14.736 0.065637 0.331615 -2.458615
2012-04-10 07:30:40 51°12.657 2°49.938 14.7153 0.054533 0.274268 -2.458615
2012-04-10 07:30:45 51°12.649 2°49.914 14.7491 0.060188 0.303392 -2.458615
2012-04-10 07:30:50 51°12.641 2°49.889 14.7398 0.058029 0.292248 -2.458615
2012-04-10 07:30:55 51°12.633 2°49.864 14.7439 0.052888 0.265801 -2.458615
2012-04-10 07:31:00 51°12.625 2°49.839 14.7335 0.052888 0.265801 -2.458615
2012-04-10 07:31:05 51°12.617 2°49.814 14.7537 0.053197 0.26738 -2.458615
2012-04-10 07:31:10 51°12.609 2°49.789 14.7488 0.047645 0.238981 -2.458615
2012-04-10 07:31:15 51°12.6 2°49.765 14.7492 0.059057 0.297624 -2.458615
2012-04-10 07:31:20 51°12.592 2°49.74 14.7466 0.050935 0.255878 -2.458615
2012-04-10 07:31:25 51°12.584 2°49.715 14.7629 0.051243 0.257454 -2.458615
2012-04-10 07:31:30 51°12.576 2°49.691 14.7433 0.051243 0.257454 -2.458615
2012-04-10 07:31:35 51°12.568 2°49.666 14.7468 0.051243 0.257474 -2.458615
2012-04-10 07:31:40 51°12.56 2°49.641 14.7249 0.050421 0.253256 -2.458615
2012-04-10 07:31:45 51°12.552 2°49.617 14.7343 0.051757 0.26011 -2.458615
2012-04-10 07:31:50 51°12.543 2°49.592 14.7519 0.056589 0.284926 -2.458615
2012-04-10 07:31:55 51°12.535 2°49.567 14.7402 0.053813 0.27059 -2.458615
2012-04-10 07:32:00 51°12.527 2°49.543 14.7391 0.053813 0.27059 -2.458615
2012-04-10 07:32:04 51°12.52 2°49.523 14.7488 0.055253 0.278043 -2.458615
2012-04-10 07:32:10 51°12.51 2°49.494 14.7536 0.049804 0.250071 -2.458615
2012-04-10 07:32:15 51°12.502 2°49.469 14.7643 0.050523 0.253731 -2.458615
2012-04-10 07:32:20 51°12.493 2°49.445 14.7355 0.053402 0.268495 -2.458615
2012-04-10 07:32:25 51°12.484 2°49.421 14.7368 0.051037 0.256396 -2.458615
2012-04-10 07:32:30 51°12.475 2°49.397 14.7691 0.051037 0.256396 -2.458615
2012-04-10 07:32:35 51°12.466 2°49.373 14.7578 0.050729 0.2548 -2.458615
2012-04-10 07:32:40 51°12.457 2°49.349 14.7507 0.04528 0.226972 -2.458615
2012-04-10 07:32:45 51°12.447 2°49.326 14.7618 0.051449 0.258504 -2.458615
2012-04-10 07:32:50 51°12.438 2°49.302 14.7629 0.051757 0.260126 -2.458615
2012-04-10 07:32:55 51°12.428 2°49.278 14.7629 0.048364 0.242738 -2.458615
2012-04-10 07:33:00 51°12.419 2°49.255 14.7654 0.048364 0.242738 -2.458615
2012-04-10 07:33:05 51°12.409 2°49.231 14.7585 0.055356 0.27859 -2.458615
2012-04-10 07:33:10 51°12.399 2°49.208 14.764 0.050729 0.254832 -2.458615
2012-04-10 07:33:15 51°12.39 2°49.184 14.7395 0.045177 0.226488 -2.458615
2012-04-10 07:33:20 51°12.381 2°49.161 14.7397 0.065431 0.330736 -2.458615
2012-04-10 07:33:25 51°12.371 2°49.137 14.7723 0.053094 0.267011 -2.458615
2012-04-10 07:33:30 51°12.362 2°49.114 14.7549 0.053094 0.267011 -2.458615
2012-04-10 07:33:35 51°12.353 2°49.09 14.778 0.069544 0.352208 -2.458615
2012-04-10 07:33:40 51°12.344 2°49.066 14.7643 0.04929 0.247511 -2.458615
2012-04-10 07:33:45 51°12.334 2°49.042 14.7817 0.057618 0.290282 -2.458615
2012-04-10 07:33:50 51°12.325 2°49.018 14.7469 0.048776 0.244859 -2.458615
2012-04-10 07:33:55 51°12.316 2°48.995 14.7476 0.059571 0.300384 -2.458615
2012-04-10 07:34:00 51°12.307 2°48.97 14.7588 0.059571 0.300384 -2.458615
2012-04-10 07:34:04 51°12.301 2°48.951 14.7664 0.05916 0.298287 -2.458615
2012-04-10 07:34:10 51°12.291 2°48.92 14.7712 0.062141 0.313736 -2.458615
2012-04-10 07:34:15 51°12.284 2°48.895 14.7734 0.054327 0.273395 -2.458615
2012-04-10 07:34:20 51°12.277 2°48.869 14.7597 0.062861 0.317492 -2.458615
2012-04-10 07:34:24 51°12.271 2°48.849 14.7726 0.056178 0.282923 -2.458615
2012-04-10 07:34:30 51°12.263 2°48.818 14.7746 0.056178 0.282923 -2.458615
2012-04-10 07:34:35 51°12.256 2°48.792 14.7668 0.050421 0.25332 -2.458615
2012-04-10 07:34:40 51°12.249 2°48.766 14.7633 0.052168 0.262273 -2.458615
2012-04-10 07:34:45 51°12.242 2°48.74 14.7656 0.056075 0.282367 -2.458615
2012-04-10 07:34:50 51°12.235 2°48.715 14.7639 0.057309 0.288732 -2.458615
2012-04-10 07:34:55 51°12.228 2°48.689 14.7349 0.060496 0.305164 -2.458615
2012-04-10 07:35:00 51°12.221 2°48.663 14.7684 0.060496 0.305164 -2.458615
2012-04-10 07:35:04 51°12.216 2°48.642 14.7582 0.054225 0.272819 -2.458615
2012-04-10 07:35:10 51°12.207 2°48.611 14.7655 0.055664 0.28027 -2.458615
2012-04-10 07:35:15 51°12.2 2°48.585 14.7536 0.050523 0.253854 -2.458615
2012-04-10 07:35:20 51°12.193 2°48.56 14.7805 0.049907 0.250683 -2.458615
2012-04-10 07:35:25 51°12.186 2°48.534 14.7676 0.051346 0.258066 -2.458615
2012-04-10 07:35:30 51°12.179 2°48.508 14.7861 0.051346 0.258066 -2.458615
2012-04-10 07:35:35 51°12.172 2°48.482 14.7685 0.048467 0.243393 -2.458615
2012-04-10 07:35:40 51°12.165 2°48.456 14.7641 0.047439 0.238173 -2.458615
2012-04-10 07:35:45 51°12.157 2°48.431 14.7688 0.050729 0.255016 -2.458615
2012-04-10 07:35:50 51°12.15 2°48.405 14.7679 0.052682 0.265057 -2.458615
2012-04-10 07:35:55 51°12.143 2°48.379 14.7581 0.050112 0.251862 -2.458615
2012-04-10 07:36:00 51°12.135 2°48.353 14.7845 0.050112 0.251862 -2.458615
2012-04-10 07:36:05 51°12.127 2°48.328 14.7626 0.050421 0.253415 -2.458615
2012-04-10 07:36:10 51°12.119 2°48.302 14.7643 0.050935 0.256026 -2.458615
2012-04-10 07:36:15 51°12.112 2°48.276 14.7753 0.051757 0.260236 -2.458615
2012-04-10 07:36:20 51°12.104 2°48.251 14.7867 0.048981 0.245987 -2.458615
2012-04-10 07:36:24 51°12.098 2°48.23 14.7776 0.04929 0.247546 -2.458615
2012-04-10 07:36:30 51°12.089 2°48.2 14.7862 0.04929 0.247546 -2.458615
2012-04-10 07:36:35 51°12.081 2°48.174 14.7856 0.051346 0.258066 -2.458615
2012-04-10 07:36:40 51°12.073 2°48.148 14.7771 0.050832 0.255427 -2.458615
2012-04-10 07:36:45 51°12.065 2°48.122 14.7812 0.04785 0.240184 -2.458615
2012-04-10 07:36:50 51°12.057 2°48.097 14.7778 0.05587 0.281339 -2.458615
2012-04-10 07:36:55 51°12.049 2°48.071 14.7776 0.050832 0.255467 -2.458615
2012-04-10 07:37:00 51°12.041 2°48.046 14.7855 0.050832 0.255467 -2.458615
2012-04-10 07:37:05 51°12.033 2°48.02 14.7693 0.048159 0.241771 -2.458615
2012-04-10 07:37:10 51°12.025 2°47.995 14.7907 0.057103 0.287708 -2.458615
2012-04-10 07:37:15 51°12.017 2°47.969 14.7915 0.054225 0.272892 -2.458615
2012-04-10 07:37:20 51°12.009 2°47.943 14.7886 0.050832 0.255495 -2.458615
2012-04-10 07:37:25 51°12.001 2°47.918 14.7865 0.053608 0.269728 -2.458615
2012-04-10 07:37:30 51°11.994 2°47.892 14.774 0.053608 0.269728 -2.458615
2012-04-10 07:37:35 51°11.986 2°47.866 14.7958 0.056178 0.282972 -2.458615
2012-04-10 07:37:40 51°11.979 2°47.84 14.7825 0.050729 0.254956 -2.458615
2012-04-10 07:37:45 51°11.972 2°47.813 14.7983 0.055767 0.280915 -2.458615
2012-04-10 07:37:50 51°11.964 2°47.787 14.7791 0.053608 0.269771 -2.458615
2012-04-10 07:37:55 51°11.957 2°47.761 14.7943 0.055664 0.280345 -2.458615
2012-04-10 07:38:00 51°11.95 2°47.735 14.8011 0.055664 0.280345 -2.458615
2012-04-10 07:38:05 51°11.942 2°47.709 14.7913 0.054533 0.274522 -2.458615
2012-04-10 07:38:10 51°11.935 2°47.682 14.7853 0.052168 0.262363 -2.458615
2012-04-10 07:38:15 51°11.928 2°47.656 14.7988 0.054944 0.27663 -2.458615
2012-04-10 07:38:20 51°11.921 2°47.63 14.7873 0.057001 0.287232 -2.458615
2012-04-10 07:38:24 51°11.916 2°47.609 14.794 0.057206 0.288279 -2.458615
2012-04-10 07:38:30 51°11.908 2°47.577 14.7959 0.057206 0.288279 -2.458615
2012-04-10 07:38:35 51°11.901 2°47.55 14.8004 0.060188 0.303723 -2.458615
2012-04-10 07:38:40 51°11.895 2°47.523 14.7952 0.052785 0.265523 -2.458615
2012-04-10 07:38:44 51°11.89 2°47.501 14.7924 0.054122 0.272393 -2.458615
2012-04-10 07:38:50 51°11.883 2°47.469 14.7996 0.052991 0.266654 -2.458615
2012-04-10 07:38:55 51°11.877 2°47.442 14.8076 0.049701 0.249806 -2.458615
2012-04-10 07:39:00 51°11.871 2°47.415 14.8012 0.049701 0.249806 -2.458615
2012-04-10 07:39:05 51°11.864 2°47.388 14.7904 0.05114 0.257189 -2.458615
2012-04-10 07:39:10 51°11.858 2°47.361 14.8002 0.048056 0.241392 -2.458615
2012-04-10 07:39:15 51°11.851 2°47.334 14.8156 0.053711 0.270393 -2.458615
2012-04-10 07:39:20 51°11.845 2°47.307 14.7931 0.050421 0.253506 -2.458615
2012-04-10 07:39:25 51°11.839 2°47.279 14.8104 0.049804 0.250349 -2.458615
2012-04-10 07:39:30 51°11.833 2°47.252 14.8141 0.049804 0.250349 -2.458615
2012-04-10 07:39:35 51°11.826 2°47.225 14.8127 0.050009 0.251402 -2.458615
2012-04-10 07:39:40 51°11.82 2°47.198 14.8011 0.04785 0.240363 -2.458615
2012-04-10 07:39:45 51°11.813 2°47.171 14.8051 0.048981 0.246152 -2.458615
2012-04-10 07:39:50 51°11.807 2°47.144 14.8071 0.051757 0.260379 -2.458615
2012-04-10 07:39:55 51°11.8 2°47.117 14.8068 0.050729 0.255111 -2.458615
2012-04-10 07:40:00 51°11.793 2°47.091 14.7924 0.050729 0.255111 -2.458615
2012-04-10 07:40:05 51°11.786 2°47.064 14.813 0.052374 0.263551 -2.458615
2012-04-10 07:40:10 51°11.779 2°47.037 14.8045 0.049701 0.249834 -2.458615
2012-04-10 07:40:15 51°11.772 2°47.011 14.8155 0.051449 0.258751 -2.458615
2012-04-10 07:40:20 51°11.765 2°46.984 14.812 0.047542 0.238705 -2.458615
2012-04-10 07:40:25 51°11.757 2°46.958 14.8005 0.04929 0.24765 -2.458615
2012-04-10 07:40:30 51°11.75 2°46.932 14.8182 0.04929 0.24765 -2.458615
2012-04-10 07:40:35 51°11.742 2°46.905 14.8015 0.045897 0.230382 -2.458615
2012-04-10 07:40:40 51°11.735 2°46.879 14.8152 0.048981 0.246179 -2.458615
2012-04-10 07:40:45 51°11.727 2°46.853 14.7811 0.054533 0.274677 -2.458615
2012-04-10 07:40:50 51°11.719 2°46.827 14.8023 0.05515 0.27782 -2.458615
2012-04-10 07:40:55 51°11.712 2°46.801 14.8075 0.051243 0.257736 -2.458615
2012-04-10 07:41:00 51°11.704 2°46.775 14.8156 0.051243 0.257736 -2.458615
2012-04-10 07:41:04 51°11.699 2°46.754 14.8206 0.054636 0.275151 -2.458615
2012-04-10 07:41:10 51°11.69 2°46.722 14.8082 0.056487 0.284674 -2.458615
2012-04-10 07:41:15 51°11.682 2°46.696 14.8024 0.052477 0.264034 -2.458615
2012-04-10 07:41:20 51°11.675 2°46.669 14.8167 0.054636 0.275142 -2.458615
2012-04-10 07:41:25 51°11.668 2°46.643 14.7998 0.05186 0.260866 -2.458615
2012-04-10 07:41:30 51°11.661 2°46.616 14.8269 0.05186 0.260866 -2.458615
2012-04-10 07:41:35 51°11.654 2°46.589 14.8242 0.057103 0.287866 -2.458615
2012-04-10 07:41:40 51°11.648 2°46.562 14.7947 0.049804 0.25031 -2.458615
2012-04-10 07:41:45 51°11.641 2°46.535 14.8176 0.059571 0.300598 -2.458615
2012-04-10 07:41:50 51°11.635 2°46.508 14.8284 0.049701 0.249763 -2.458615
2012-04-10 07:41:55 51°11.629 2°46.48 14.8163 0.059263 0.298979 -2.458615
2012-04-10 07:42:00 51°11.623 2°46.453 14.8208 0.059263 0.298979 -2.458615
2012-04-10 07:42:05 51°11.617 2°46.426 14.8153 0.052168 0.262409 -2.458615
2012-04-10 07:42:10 51°11.61 2°46.398 14.8318 0.056692 0.285717 -2.458615
2012-04-10 07:42:15 51°11.604 2°46.371 14.8266 0.047542 0.238746 -2.458615
2012-04-10 07:42:20 51°11.598 2°46.344 14.826 0.044869 0.225096 -2.458615
2012-04-10 07:42:25 51°11.59 2°46.318 14.8133 0.047233 0.237178 -2.458615
2012-04-10 07:42:30 51°11.583 2°46.292 14.8088 0.047233 0.237178 -2.458615
2012-04-10 07:42:35 51°11.575 2°46.266 14.8268 0.048673 0.244581 -2.458615
2012-04-10 07:42:40 51°11.568 2°46.239 14.8129 0.051654 0.259867 -2.458615
2012-04-10 07:42:45 51°11.56 2°46.213 14.8136 0.05186 0.260899 -2.458615
2012-04-10 07:42:50 51°11.553 2°46.186 14.822 0.054225 0.273038 -2.458615
2012-04-10 07:42:55 51°11.546 2°46.16 14.8236 0.056178 0.283124 -2.458615
2012-04-10 07:43:00 51°11.539 2°46.133 14.8205 0.056178 0.283124 -2.458615
2012-04-10 07:43:04 51°11.533 2°46.112 14.8212 0.055664 0.280438 -2.458615
2012-04-10 07:43:10 51°11.525 2°46.079 14.8265 0.052271 0.263031 -2.458615
2012-04-10 07:43:15 51°11.519 2°46.052 14.823 0.054533 0.274673 -2.458615
2012-04-10 07:43:20 51°11.513 2°46.025 14.8301 0.054327 0.273593 -2.458615
2012-04-10 07:43:25 51°11.507 2°45.997 14.8254 0.054019 0.271967 -2.458615
2012-04-10 07:43:30 51°11.501 2°45.97 14.8335 0.054019 0.271967 -2.458615
2012-04-10 07:43:35 51°11.495 2°45.943 14.8324 0.050009 0.251367 -2.458615
2012-04-10 07:43:40 51°11.488 2°45.916 14.8366 0.052374 0.263522 -2.458615
2012-04-10 07:43:44 51°11.484 2°45.894 14.8199 0.058851 0.296946 -2.458615
2012-04-10 07:43:50 51°11.476 2°45.861 14.8305 0.052477 0.264055 -2.458615
2012-04-10 07:43:55 51°11.47 2°45.834 14.83 0.055356 0.278901 -2.458615
2012-04-10 07:44:00 51°11.464 2°45.807 14.8266 0.055356 0.278901 -2.458615
2012-04-10 07:44:05 51°11.458 2°45.78 14.8307 0.049598 0.249366 -2.458615
2012-04-10 07:44:10 51°11.452 2°45.753 14.8257 0.049701 0.249908 -2.458615
2012-04-10 07:44:15 51°11.446 2°45.726 14.8234 0.050832 0.255695 -2.458615
2012-04-10 07:44:20 51°11.439 2°45.698 14.84 0.052066 0.261975 -2.458615
2012-04-10 07:44:25 51°11.433 2°45.671 14.8362 0.051654 0.259847 -2.458615
2012-04-10 07:44:30 51°11.427 2°45.644 14.8364 0.051654 0.259847 -2.458615
2012-04-10 07:44:35 51°11.421 2°45.617 14.8514 0.051654 0.259859 -2.458615
2012-04-10 07:44:40 51°11.415 2°45.589 14.8241 0.053505 0.269382 -2.458615
2012-04-10 07:44:45 51°11.409 2°45.562 14.8203 0.050935 0.256202 -2.458615
2012-04-10 07:44:50 51°11.403 2°45.535 14.8357 0.051552 0.259352 -2.458615
2012-04-10 07:44:55 51°11.396 2°45.508 14.8202 0.052785 0.265681 -2.458615
2012-04-10 07:45:00 51°11.39 2°45.481 14.8388 0.052785 0.265681 -2.458615
2012-04-10 07:45:05 51°11.383 2°45.454 14.8234 0.049187 0.247217 -2.458615
2012-04-10 07:45:10 51°11.376 2°45.428 14.8407 0.050215 0.252468 -2.458615
2012-04-10 07:45:15 51°11.369 2°45.401 14.8273 0.046514 0.233518 -2.458615
2012-04-10 07:45:20 51°11.361 2°45.375 14.8323 0.057823 0.291665 -2.458615
2012-04-10 07:45:24 51°11.355 2°45.353 14.8327 0.049187 0.247236 -2.458615
2012-04-10 07:45:30 51°11.346 2°45.322 14.8253 0.049187 0.247236 -2.458615
2012-04-10 07:45:35 51°11.338 2°45.296 14.8421 0.052374 0.263568 -2.458615
2012-04-10 07:45:40 51°11.33 2°45.27 14.856 0.049598 0.249338 -2.458615
2012-04-10 07:45:44 51°11.324 2°45.249 14.8434 0.048981 0.246202 -2.458615
2012-04-10 07:45:50 51°11.314 2°45.218 14.8314 0.046411 0.233069 -2.458615
2012-04-10 07:45:55 51°11.306 2°45.193 14.8468 0.054327 0.273675 -2.458615
2012-04-10 07:46:00 51°11.298 2°45.166 14.8434 0.054327 0.273675 -2.458615
2012-04-10 07:46:05 51°11.29 2°45.141 14.8392 0.04929 0.247786 -2.458615
2012-04-10 07:46:10 51°11.282 2°45.115 14.8427 0.048776 0.245138 -2.458615
2012-04-10 07:46:15 51°11.274 2°45.089 14.8581 0.05844 0.294937 -2.458615
2012-04-10 07:46:20 51°11.266 2°45.063 14.8398 0.05443 0.274286 -2.458615
2012-04-10 07:46:24 51°11.26 2°45.042 14.8524 0.051963 0.261578 -2.458615
2012-04-10 07:46:30 51°11.252 2°45.01 14.8329 0.051963 0.261578 -2.458615
2012-04-10 07:46:35 51°11.244 2°44.984 14.8326 0.064712 0.32744 -2.458615
2012-04-10 07:46:40 51°11.238 2°44.957 14.8478 0.055767 0.281096 -2.458615
2012-04-10 07:46:45 51°11.232 2°44.93 14.8484 0.059982 0.302884 -2.458615
2012-04-10 07:46:50 51°11.226 2°44.903 14.8521 0.062861 0.317849 -2.458615
2012-04-10 07:46:55 51°11.22 2°44.875 14.844 0.054842 0.276331 -2.458615
2012-04-10 07:47:00 51°11.215 2°44.847 14.8561 0.054842 0.276331 -2.458615
2012-04-10 07:47:05 51°11.21 2°44.819 14.8552 0.057412 0.289586 -2.458615
2012-04-10 07:47:10 51°11.205 2°44.792 14.8389 0.055356 0.278972 -2.458615
2012-04-10 07:47:15 51°11.201 2°44.764 14.8465 0.052066 0.262103 -2.458615
2012-04-10 07:47:20 51°11.196 2°44.736 14.8593 0.060496 0.305657 -2.458615
2012-04-10 07:47:25 51°11.192 2°44.707 14.8495 0.051552 0.25947 -2.458615
2012-04-10 07:47:30 51°11.187 2°44.679 14.8469 0.051552 0.25947 -2.458615
2012-04-10 07:47:35 51°11.182 2°44.651 14.8328 0.053711 0.270576 -2.458615
2012-04-10 07:47:40 51°11.178 2°44.624 14.8499 0.052271 0.263143 -2.458615
2012-04-10 07:47:44 51°11.174 2°44.601 14.853 0.052888 0.266289 -2.458615
2012-04-10 07:47:50 51°11.168 2°44.568 14.8553 0.044766 0.224694 -2.458615
2012-04-10 07:47:55 51°11.162 2°44.541 14.8583 0.046102 0.23151 -2.458615
2012-04-10 07:48:00 51°11.157 2°44.513 14.8557 0.046102 0.23151 -2.458615
2012-04-10 07:48:05 51°11.15 2°44.486 14.841 0.045486 0.228377 -2.458615
2012-04-10 07:48:10 51°11.144 2°44.459 14.8527 0.048981 0.246268 -2.458615
2012-04-10 07:48:15 51°11.138 2°44.432 14.8552 0.048467 0.243655 -2.458615
2012-04-10 07:48:20 51°11.131 2°44.405 14.8527 0.046308 0.232628 -2.458615
2012-04-10 07:48:24 51°11.125 2°44.384 14.8474 0.044869 0.225281 -2.458615
2012-04-10 07:48:30 51°11.117 2°44.352 14.825 0.044869 0.225281 -2.458615
2012-04-10 07:48:35 51°11.11 2°44.326 14.8548 0.049907 0.251032 -2.458615
2012-04-10 07:48:40 51°11.103 2°44.299 14.8386 0.050318 0.253149 -2.458615
2012-04-10 07:48:45 51°11.097 2°44.272 14.8655 0.058337 0.294466 -2.458615
2012-04-10 07:48:50 51°11.091 2°44.245 14.8572 0.050832 0.255771 -2.458615
2012-04-10 07:48:55 51°11.085 2°44.218 14.8691 0.048776 0.245215 -2.458615
2012-04-10 07:49:00 51°11.079 2°44.19 14.8735 0.048776 0.245215 -2.458615
2012-04-10 07:49:05 51°11.073 2°44.163 14.8629 0.044457 0.223151 -2.458615
2012-04-10 07:49:10 51°11.066 2°44.137 14.8566 0.046514 0.23362 -2.458615
2012-04-10 07:49:15 51°11.06 2°44.109 14.855 0.052785 0.265769 -2.458615
2012-04-10 07:49:20 51°11.054 2°44.082 14.8665 0.054636 0.275333 -2.458615
2012-04-10 07:49:25 51°11.048 2°44.055 14.8621 0.051757 0.260534 -2.458615
2012-04-10 07:49:30 51°11.043 2°44.027 14.882 0.051757 0.260534 -2.458615
2012-04-10 07:49:35 51°11.038 2°44 14.8675 0.050112 0.252114 -2.458615
2012-04-10 07:49:40 51°11.033 2°43.972 14.8745 0.057309 0.289138 -2.458615
2012-04-10 07:49:45 51°11.029 2°43.944 14.8758 0.050935 0.256319 -2.458615
2012-04-10 07:49:50 51°11.024 2°43.916 14.8601 0.05258 0.264778 -2.458615
2012-04-10 07:49:55 51°11.019 2°43.888 14.878 0.047542 0.238928 -2.458615
2012-04-10 07:50:00 51°11.015 2°43.86 14.869 0.047542 0.238928 -2.458615
2012-04-10 07:50:05 51°11.01 2°43.832 14.8682 0.049804 0.250478 -2.458615
2012-04-10 07:50:10 51°11.006 2°43.804 14.8802 0.056487 0.28489 -2.458615
2012-04-10 07:50:15 51°11.001 2°43.776 14.87 0.052888 0.266306 -2.458615
2012-04-10 07:50:20 51°10.996 2°43.748 14.857 0.047953 0.240972 -2.458615
2012-04-10 07:50:24 51°10.992 2°43.726 14.8699 0.050626 0.254704 -2.458615
2012-04-10 07:50:30 51°10.987 2°43.692 14.8821 0.050626 0.254704 -2.458615
2012-04-10 07:50:35 51°10.981 2°43.665 14.8648 0.046205 0.232052 -2.458615
2012-04-10 07:50:40 51°10.975 2°43.638 14.8711 0.044869 0.225239 -2.458615
2012-04-10 07:50:45 51°10.97 2°43.611 14.8807 0.044046 0.22105 -2.458615
2012-04-10 07:50:50 51°10.963 2°43.584 14.8619 0.046514 0.23366 -2.458615
2012-04-10 07:50:55 51°10.956 2°43.557 14.8752 0.045383 0.227959 -2.458615
2012-04-10 07:51:00 51°10.95 2°43.531 14.8643 0.045383 0.227959 -2.458615
2012-04-10 07:51:05 51°10.942 2°43.505 14.8587 0.049495 0.24901 -2.458615
2012-04-10 07:51:10 51°10.935 2°43.478 14.8516 0.047439 0.238507 -2.458615
2012-04-10 07:51:15 51°10.928 2°43.452 14.8552 0.050935 0.256427 -2.458615
2012-04-10 07:51:20 51°10.921 2°43.425 14.871 0.048056 0.241645 -2.458615
2012-04-10 07:51:25 51°10.914 2°43.398 14.859 0.06245 0.315855 -2.458615
2012-04-10 07:51:30 51°10.907 2°43.371 14.8678 0.06245 0.315855 -2.458615
2012-04-10 07:51:35 51°10.901 2°43.344 14.8658 0.059057 0.298222 -2.458615
2012-04-10 07:51:40 51°10.895 2°43.317 14.8777 0.054739 0.275927 -2.458615
2012-04-10 07:51:45 51°10.89 2°43.289 14.8813 0.057309 0.289169 -2.458615
2012-04-10 07:51:50 51°10.884 2°43.262 14.8885 0.050318 0.253189 -2.458615
2012-04-10 07:51:55 51°10.879 2°43.234 14.8831 0.052785 0.26584 -2.458615
2012-04-10 07:52:00 51°10.874 2°43.206 14.8928 0.052785 0.26584 -2.458615
2012-04-10 07:52:04 51°10.87 2°43.184 14.8768 0.049392 0.248425 -2.458615
2012-04-10 07:52:10 51°10.865 2°43.15 14.8935 0.052374 0.263754 -2.458615
2012-04-10 07:52:15 51°10.86 2°43.122 14.8908 0.051243 0.257959 -2.458615
2012-04-10 07:52:20 51°10.855 2°43.094 14.8792 0.054019 0.272249 -2.458615
2012-04-10 07:52:24 51°10.852 2°43.072 14.875 0.051552 0.259559 -2.458615
2012-04-10 07:52:30 51°10.846 2°43.038 14.8893 0.051552 0.259559 -2.458615
2012-04-10 07:52:35 51°10.841 2°43.011 14.8876 0.047747 0.24004 -2.458615
2012-04-10 07:52:40 51°10.836 2°42.983 14.8834 0.047131 0.236848 -2.458615
2012-04-10 07:52:45 51°10.831 2°42.955 14.892 0.048776 0.245268 -2.458615
2012-04-10 07:52:50 51°10.826 2°42.927 14.877 0.055253 0.278587 -2.458615
2012-04-10 07:52:55 51°10.821 2°42.9 14.8916 0.04785 0.24054 -2.458615
2012-04-10 07:53:00 51°10.816 2°42.872 14.8824 0.04785 0.24054 -2.458615
2012-04-10 07:53:04 51°10.811 2°42.85 14.8897 0.046514 0.233707 -2.458615
2012-04-10 07:53:10 51°10.805 2°42.817 14.8878 0.049701 0.250037 -2.458615
2012-04-10 07:53:15 51°10.799 2°42.79 14.8786 0.044869 0.22533 -2.458615
2012-04-10 07:53:20 51°10.792 2°42.763 14.8744 0.05916 0.298768 -2.458615
2012-04-10 07:53:25 51°10.786 2°42.736 14.8874 0.051552 0.259515 -2.458615
2012-04-10 07:53:30 51°10.779 2°42.709 14.8799 0.051552 0.259515 -2.458615
2012-04-10 07:53:35 51°10.773 2°42.682 14.8815 0.052168 0.262668 -2.458615
2012-04-10 07:53:40 51°10.766 2°42.655 14.8926 0.055458 0.279599 -2.458615
2012-04-10 07:53:44 51°10.761 2°42.633 14.896 0.051037 0.25685 -2.458615
2012-04-10 07:53:50 51°10.753 2°42.601 14.8868 0.050626 0.254732 -2.458615
2012-04-10 07:53:55 51°10.747 2°42.574 14.8912 0.051552 0.259494 -2.458615
2012-04-10 07:54:00 51°10.741 2°42.546 14.9042 0.051552 0.259494 -2.458615
2012-04-10 07:54:05 51°10.735 2°42.519 14.9008 0.048262 0.242656 -2.458615
2012-04-10 07:54:10 51°10.729 2°42.492 14.8978 0.04929 0.247941 -2.458615
2012-04-10 07:54:15 51°10.723 2°42.464 14.9042 0.050626 0.254808 -2.458615
2012-04-10 07:54:20 51°10.718 2°42.437 14.9028 0.050318 0.253213 -2.458615
2012-04-10 07:54:24 51°10.713 2°42.415 14.9101 0.049187 0.24741 -2.458615
2012-04-10 07:54:30 51°10.707 2°42.381 14.8919 0.049187 0.24741 -2.458615
2012-04-10 07:54:35 51°10.702 2°42.354 14.919 0.053505 0.269598 -2.458615
2012-04-10 07:54:40 51°10.697 2°42.326 14.9148 0.050215 0.252689 -2.458615
2012-04-10 07:54:44 51°10.692 2°42.304 14.9099 0.049701 0.250049 -2.458615
2012-04-10 07:54:50 51°10.686 2°42.27 14.9141 0.048878 0.245818 -2.458615
2012-04-10 07:54:55 51°10.68 2°42.243 14.9022 0.048364 0.243174 -2.458615
2012-04-10 07:55:00 51°10.675 2°42.215 14.9149 0.048364 0.243174 -2.458615
2012-04-10 07:55:05 51°10.669 2°42.188 14.9184 0.046617 0.23424 -2.458615
2012-04-10 07:55:10 51°10.664 2°42.161 14.9174 0.045383 0.227945 -2.458615
2012-04-10 07:55:15 51°10.658 2°42.133 14.9126 0.051757 0.260587 -2.458615
2012-04-10 07:55:20 51°10.652 2°42.106 14.8951 0.049495 0.248987 -2.458615
2012-04-10 07:55:25 51°10.647 2°42.078 14.925 0.047233 0.237415 -2.458615
2012-04-10 07:55:30 51°10.641 2°42.051 14.9158 0.047233 0.237415 -2.458615
2012-04-10 07:55:35 51°10.635 2°42.024 14.9072 0.046514 0.23374 -2.458615
2012-04-10 07:55:40 51°10.628 2°41.997 14.9073 0.048159 0.24211 -2.458615
2012-04-10 07:55:45 51°10.622 2°41.969 14.9204 0.04857 0.244284 -2.458615
2012-04-10 07:55:50 51°10.615 2°41.943 14.8981 0.054636 0.275476 -2.458615
2012-04-10 07:55:55 51°10.608 2°41.915 14.9181 0.051346 0.258527 -2.458615
2012-04-10 07:56:00 51°10.602 2°41.889 14.9124 0.051346 0.258527 -2.458615
2012-04-10 07:56:05 51°10.595 2°41.862 14.9157 0.053916 0.27172 -2.458615
2012-04-10 07:56:10 51°10.589 2°41.835 14.899 0.056178 0.283378 -2.458615
2012-04-10 07:56:15 51°10.583 2°41.807 14.9161 0.050935 0.256395 -2.458615
2012-04-10 07:56:20 51°10.576 2°41.78 14.9324 0.048159 0.242167 -2.458615
2012-04-10 07:56:25 51°10.57 2°41.753 14.9213 0.055561 0.280248 -2.458615
2012-04-10 07:56:30 51°10.565 2°41.725 14.9115 0.055561 0.280248 -2.458615
2012-04-10 07:56:35 51°10.559 2°41.698 14.9172 0.05587 0.281818 -2.458615
2012-04-10 07:56:40 51°10.554 2°41.67 14.9043 0.058337 0.294582 -2.458615
2012-04-10 07:56:45 51°10.549 2°41.642 14.9308 0.053608 0.270182 -2.458615
2012-04-10 07:56:50 51°10.544 2°41.614 14.9145 0.054225 0.273356 -2.458615
2012-04-10 07:56:55 51°10.539 2°41.587 14.9159 0.054739 0.27604 -2.458615
2012-04-10 07:57:00 51°10.534 2°41.559 14.9225 0.054739 0.27604 -2.458615
2012-04-10 07:57:05 51°10.529 2°41.531 14.9147 0.049907 0.251162 -2.458615
2012-04-10 07:57:10 51°10.524 2°41.503 14.9266 0.049907 0.251139 -2.458615
2012-04-10 07:57:15 51°10.519 2°41.475 14.924 0.051757 0.260673 -2.458615
2012-04-10 07:57:20 51°10.514 2°41.447 14.9361 0.051346 0.258592 -2.458615
2012-04-10 07:57:24 51°10.511 2°41.425 14.9264 0.053916 0.27184 -2.458615
2012-04-10 07:57:30 51°10.504 2°41.392 14.929 0.053916 0.27184 -2.458615
2012-04-10 07:57:35 51°10.499 2°41.365 14.94 0.048262 0.242784 -2.458615
2012-04-10 07:57:40 51°10.493 2°41.337 14.9247 0.045897 0.230665 -2.458615
2012-04-10 07:57:45 51°10.487 2°41.31 14.9341 0.050626 0.254899 -2.458615
2012-04-10 07:57:50 51°10.481 2°41.283 14.9333 0.046617 0.234393 -2.458615
2012-04-10 07:57:55 51°10.474 2°41.256 14.9355 0.044869 0.225449 -2.458615
2012-04-10 07:58:00 51°10.467 2°41.229 14.9282 0.044869 0.225449 -2.458615
2012-04-10 07:58:05 51°10.46 2°41.202 14.9312 0.057001 0.287749 -2.458615
2012-04-10 07:58:10 51°10.453 2°41.175 14.9235 0.048262 0.242773 -2.458615
2012-04-10 07:58:15 51°10.446 2°41.148 14.8997 0.059674 0.301583 -2.458615
2012-04-10 07:58:20 51°10.439 2°41.122 14.9067 0.05844 0.295175 -2.458615
2012-04-10 07:58:25 51°10.431 2°41.096 14.9088 0.052991 0.267065 -2.458615
2012-04-10 07:58:30 51°10.425 2°41.069 14.92 0.052991 0.267065 -2.458615
2012-04-10 07:58:35 51°10.418 2°41.042 14.9212 0.059057 0.29843 -2.458615
2012-04-10 07:58:40 51°10.412 2°41.015 14.9274 0.056898 0.287313 -2.458615
2012-04-10 07:58:44 51°10.407 2°40.994 14.937 0.061627 0.311813 -2.458615
2012-04-10 07:58:50 51°10.4 2°40.96 14.9575 0.054739 0.276162 -2.458615
2012-04-10 07:58:55 51°10.395 2°40.933 14.9459 0.052168 0.262907 -2.458615
2012-04-10 07:59:00 51°10.39 2°40.905 14.9484 0.052168 0.262907 -2.458615
2012-04-10 07:59:05 51°10.386 2°40.877 14.9427 0.053813 0.271361 -2.458615
2012-04-10 07:59:10 51°10.381 2°40.849 14.9334 0.052066 0.262358 -2.458615
2012-04-10 07:59:15 51°10.376 2°40.821 14.95 0.052682 0.26554 -2.458615
2012-04-10 07:59:20 51°10.371 2°40.793 14.9412 0.052271 0.263428 -2.458615
2012-04-10 07:59:24 51°10.368 2°40.771 14.9212 0.053505 0.269768 -2.458615
2012-04-10 07:59:30 51°10.361 2°40.738 14.9416 0.053505 0.269768 -2.458615